PORTS® Data Listing: 9410647 Angels Gate, CA

CO-OPS RAW PORTS DATA

************************      PRELIMINARY DATA      ************************** 

     THIS RAW DATA HAS NOT BEEN SUBJECT TO THE NATIONAL OCEAN SERVICE'S        
     QUALITY CONTROL OR QUALITY ASSURANCE PROCEDURES AND DOES NOT MEET         
     THE CRITERIA AND STANDARDS OF OFFICIAL NATIONAL OCEAN SERVICE             
     DATA.  IT IS RELEASED FOR LIMITED PUBLIC USE AS PRELIMINARY DATA TO       
     BE USED ONLY WITH APPROPRIATE CAUTION.                                    

************************      PRELIMINARY DATA      ************************** 


       CD   -   Calendar date
       T    -   Time
       TZ   -   Timezone
       PW   -   Predicted water level (feet above MLLW)
       OW   -   Observed water level (feet above MLLW)
       WS   -   Wind speed (knots)
       WD   -   Wind direction (degrees true)
       WG   -   Wind gust (knots)
       AT   -   Air temperature (degrees farenheit)
       WT   -   Water temperature (degrees farenheit)
       AP   -   Air pressure (millibars)
       SA   -   Salinty (PSU - Practical Salinity Units)
       SG   -   Specific gravity
       RH   -   Relative humidity
       AG   -   Air gap (feet)
       VI   -   Visibility (nautical miles)

       ** NOTE **
       A variable that has its data fields filled with "9"s, indicates that
       data was not collected for that sample period.
       **********


STATION NAME: Angels Gate (9410647)
****************************************************************************************************
    CD       T    TZ    PW     OW    WS   WD   WG    AT    WT    AP    SA    SG     RH    AG   VI
****************************************************************************************************
2019/12/10 19:00 PST  -99.99 -99.99    3   16    3 -99.9 -99.9 -999.9 -9.9 -9.999 -99.9 -99.99 -9.99
2019/12/10 19:06 PST  -99.99 -99.99    2   16    2 -99.9 -99.9 -999.9 -9.9 -9.999 -99.9 -99.99 -9.99
2019/12/10 19:12 PST  -99.99 -99.99    4  355    4 -99.9 -99.9 -999.9 -9.9 -9.999 -99.9 -99.99 -9.99
2019/12/10 19:18 PST  -99.99 -99.99 -999 -999 -999 -99.9 -99.9 -999.9 -9.9 -9.999 -99.9 -99.99 -9.99
2019/12/10 19:24 PST  -99.99 -99.99 -999 -999 -999 -99.9 -99.9 -999.9 -9.9 -9.999 -99.9 -99.99 -9.99
2019/12/10 19:30 PST  -99.99 -99.99    5  347    5 -99.9 -99.9 -999.9 -9.9 -9.999 -99.9 -99.99 -9.99
2019/12/10 19:36 PST  -99.99 -99.99    5  345    6 -99.9 -99.9 -999.9 -9.9 -9.999 -99.9 -99.99 -9.99
2019/12/10 19:42 PST  -99.99 -99.99    4  326    5 -99.9 -99.9 -999.9 -9.9 -9.999 -99.9 -99.99 -9.99
2019/12/10 19:48 PST  -99.99 -99.99    5  322    5 -99.9 -99.9 -999.9 -9.9 -9.999 -99.9 -99.99 -9.99
2019/12/10 19:54 PST  -99.99 -99.99    4  331    5 -99.9 -99.9 -999.9 -9.9 -9.999 -99.9 -99.99 -9.99
2019/12/10 20:00 PST  -99.99 -99.99    2  324    2 -99.9 -99.9 -999.9 -9.9 -9.999 -99.9 -99.99 -9.99
2019/12/10 20:06 PST  -99.99 -99.99    3  263    4 -99.9 -99.9 -999.9 -9.9 -9.999 -99.9 -99.99 -9.99
2019/12/10 20:12 PST  -99.99 -99.99    3  253    3 -99.9 -99.9 -999.9 -9.9 -9.999 -99.9 -99.99 -9.99
2019/12/10 20:18 PST  -99.99 -99.99 -999 -999 -999 -99.9 -99.9 -999.9 -9.9 -9.999 -99.9 -99.99 -9.99
2019/12/10 20:24 PST  -99.99 -99.99    2  245    2 -99.9 -99.9 -999.9 -9.9 -9.999 -99.9 -99.99 -9.99
2019/12/10 20:30 PST  -99.99 -99.99    2  252    2 -99.9 -99.9 -999.9 -9.9 -9.999 -99.9 -99.99 -9.99
2019/12/10 20:36 PST  -99.99 -99.99    2  267    2 -99.9 -99.9 -999.9 -9.9 -9.999 -99.9 -99.99 -9.99
2019/12/10 20:42 PST  -99.99 -99.99    0  268    0 -99.9 -99.9 -999.9 -9.9 -9.999 -99.9 -99.99 -9.99
2019/12/10 20:48 PST  -99.99 -99.99    1  268    1 -99.9 -99.9 -999.9 -9.9 -9.999 -99.9 -99.99 -9.99
2019/12/10 20:54 PST  -99.99 -99.99    1  285    2 -99.9 -99.9 -999.9 -9.9 -9.999 -99.9 -99.99 -9.99
2019/12/10 21:00 PST  -99.99 -99.99    2  299    2 -99.9 -99.9 -999.9 -9.9 -9.999 -99.9 -99.99 -9.99
2019/12/10 21:06 PST  -99.99 -99.99    1  289    1 -99.9 -99.9 -999.9 -9.9 -9.999 -99.9 -99.99 -9.99
2019/12/10 21:12 PST  -99.99 -99.99    1  303    1 -99.9 -99.9 -999.9 -9.9 -9.999 -99.9 -99.99 -9.99
2019/12/10 21:18 PST  -99.99 -99.99    0  310    1 -99.9 -99.9 -999.9 -9.9 -9.999 -99.9 -99.99 -9.99
2019/12/10 21:24 PST  -99.99 -99.99    0    0    0 -99.9 -99.9 -999.9 -9.9 -9.999 -99.9 -99.99 -9.99
2019/12/10 21:30 PST  -99.99 -99.99    0    0    0 -99.9 -99.9 -999.9 -9.9 -9.999 -99.9 -99.99 -9.99
2019/12/10 21:36 PST  -99.99 -99.99    0  233    1 -99.9 -99.9 -999.9 -9.9 -9.999 -99.9 -99.99 -9.99
2019/12/10 21:42 PST  -99.99 -99.99    0    0    0 -99.9 -99.9 -999.9 -9.9 -9.999 -99.9 -99.99 -9.99
2019/12/10 21:48 PST  -99.99 -99.99    0  151    0 -99.9 -99.9 -999.9 -9.9 -9.999 -99.9 -99.99 -9.99
2019/12/10 21:54 PST  -99.99 -99.99    1   98    1 -99.9 -99.9 -999.9 -9.9 -9.999 -99.9 -99.99 -9.99
2019/12/10 22:00 PST  -99.99 -99.99    1   71    1 -99.9 -99.9 -999.9 -9.9 -9.999 -99.9 -99.99 -9.99
2019/12/10 22:06 PST  -99.99 -99.99    1  205    1 -99.9 -99.9 -999.9 -9.9 -9.999 -99.9 -99.99 -9.99
2019/12/10 22:12 PST  -99.99 -99.99 -999 -999 -999 -99.9 -99.9 -999.9 -9.9 -9.999 -99.9 -99.99 -9.99
2019/12/10 22:18 PST  -99.99 -99.99    1  270    1 -99.9 -99.9 -999.9 -9.9 -9.999 -99.9 -99.99 -9.99
2019/12/10 22:24 PST  -99.99 -99.99    2  253    2 -99.9 -99.9 -999.9 -9.9 -9.999 -99.9 -99.99 -9.99
2019/12/10 22:30 PST  -99.99 -99.99    3  258    3 -99.9 -99.9 -999.9 -9.9 -9.999 -99.9 -99.99 -9.99
2019/12/10 22:36 PST  -99.99 -99.99 -999 -999 -999 -99.9 -99.9 -999.9 -9.9 -9.999 -99.9 -99.99 -9.99
2019/12/10 22:42 PST  -99.99 -99.99    2  295    2 -99.9 -99.9 -999.9 -9.9 -9.999 -99.9 -99.99 -9.99
2019/12/10 22:48 PST  -99.99 -99.99    2  293    2 -99.9 -99.9 -999.9 -9.9 -9.999 -99.9 -99.99 -9.99
2019/12/10 22:54 PST  -99.99 -99.99    1  293    1 -99.9 -99.9 -999.9 -9.9 -9.999 -99.9 -99.99 -9.99
2019/12/10 23:00 PST  -99.99 -99.99 -999 -999 -999 -99.9 -99.9 -999.9 -9.9 -9.999 -99.9 -99.99 -9.99
2019/12/10 23:06 PST  -99.99 -99.99    2  328    2 -99.9 -99.9 -999.9 -9.9 -9.999 -99.9 -99.99 -9.99
2019/12/10 23:12 PST  -99.99 -99.99    2  311    2 -99.9 -99.9 -999.9 -9.9 -9.999 -99.9 -99.99 -9.99
2019/12/10 23:18 PST  -99.99 -99.99    4  275    4 -99.9 -99.9 -999.9 -9.9 -9.999 -99.9 -99.99 -9.99
2019/12/10 23:24 PST  -99.99 -99.99 -999 -999 -999 -99.9 -99.9 -999.9 -9.9 -9.999 -99.9 -99.99 -9.99
2019/12/10 23:30 PST  -99.99 -99.99    1  280    1 -99.9 -99.9 -999.9 -9.9 -9.999 -99.9 -99.99 -9.99
2019/12/10 23:36 PST  -99.99 -99.99    0   47    1 -99.9 -99.9 -999.9 -9.9 -9.999 -99.9 -99.99 -9.99
2019/12/10 23:42 PST  -99.99 -99.99    1  104    1 -99.9 -99.9 -999.9 -9.9 -9.999 -99.9 -99.99 -9.99
2019/12/10 23:48 PST  -99.99 -99.99    2  105    2 -99.9 -99.9 -999.9 -9.9 -9.999 -99.9 -99.99 -9.99
2019/12/10 23:54 PST  -99.99 -99.99    2   56    3 -99.9 -99.9 -999.9 -9.9 -9.999 -99.9 -99.99 -9.99
2019/12/11 00:00 PST  -99.99 -99.99    2   36    2 -99.9 -99.9 -999.9 -9.9 -9.999 -99.9 -99.99 -9.99
2019/12/11 00:06 PST  -99.99 -99.99    2   31    2 -99.9 -99.9 -999.9 -9.9 -9.999 -99.9 -99.99 -9.99
2019/12/11 00:12 PST  -99.99 -99.99    1    6    2 -99.9 -99.9 -999.9 -9.9 -9.999 -99.9 -99.99 -9.99
2019/12/11 00:18 PST  -99.99 -99.99    1  356    2 -99.9 -99.9 -999.9 -9.9 -9.999 -99.9 -99.99 -9.99
2019/12/11 00:24 PST  -99.99 -99.99    1   19    1 -99.9 -99.9 -999.9 -9.9 -9.999 -99.9 -99.99 -9.99
2019/12/11 00:30 PST  -99.99 -99.99 -999 -999 -999 -99.9 -99.9 -999.9 -9.9 -9.999 -99.9 -99.99 -9.99
2019/12/11 00:36 PST  -99.99 -99.99    2   25    2 -99.9 -99.9 -999.9 -9.9 -9.999 -99.9 -99.99 -9.99
2019/12/11 00:42 PST  -99.99 -99.99    2   77    2 -99.9 -99.9 -999.9 -9.9 -9.999 -99.9 -99.99 -9.99
2019/12/11 00:48 PST  -99.99 -99.99 -999 -999 -999 -99.9 -99.9 -999.9 -9.9 -9.999 -99.9 -99.99 -9.99
2019/12/11 00:54 PST  -99.99 -99.99 -999 -999 -999 -99.9 -99.9 -999.9 -9.9 -9.999 -99.9 -99.99 -9.99
2019/12/11 01:00 PST  -99.99 -99.99    1   94    1 -99.9 -99.9 -999.9 -9.9 -9.999 -99.9 -99.99 -9.99
2019/12/11 01:06 PST  -99.99 -99.99    2  352    3 -99.9 -99.9 -999.9 -9.9 -9.999 -99.9 -99.99 -9.99
2019/12/11 01:12 PST  -99.99 -99.99 -999 -999 -999 -99.9 -99.9 -999.9 -9.9 -9.999 -99.9 -99.99 -9.99
2019/12/11 01:18 PST  -99.99 -99.99    3   33    3 -99.9 -99.9 -999.9 -9.9 -9.999 -99.9 -99.99 -9.99
2019/12/11 01:24 PST  -99.99 -99.99    3   25    4 -99.9 -99.9 -999.9 -9.9 -9.999 -99.9 -99.99 -9.99
2019/12/11 01:30 PST  -99.99 -99.99    4  354    4 -99.9 -99.9 -999.9 -9.9 -9.999 -99.9 -99.99 -9.99
2019/12/11 01:36 PST  -99.99 -99.99 -999 -999 -999 -99.9 -99.9 -999.9 -9.9 -9.999 -99.9 -99.99 -9.99
2019/12/11 01:42 PST  -99.99 -99.99 -999 -999 -999 -99.9 -99.9 -999.9 -9.9 -9.999 -99.9 -99.99 -9.99
2019/12/11 01:48 PST  -99.99 -99.99    2  324    3 -99.9 -99.9 -999.9 -9.9 -9.999 -99.9 -99.99 -9.99
2019/12/11 01:54 PST  -99.99 -99.99    2  346    3 -99.9 -99.9 -999.9 -9.9 -9.999 -99.9 -99.99 -9.99
2019/12/11 02:00 PST  -99.99 -99.99    3  342    3 -99.9 -99.9 -999.9 -9.9 -9.999 -99.9 -99.99 -9.99
2019/12/11 02:06 PST  -99.99 -99.99    3  328    4 -99.9 -99.9 -999.9 -9.9 -9.999 -99.9 -99.99 -9.99
2019/12/11 02:12 PST  -99.99 -99.99 -999 -999 -999 -99.9 -99.9 -999.9 -9.9 -9.999 -99.9 -99.99 -9.99
2019/12/11 02:18 PST  -99.99 -99.99    2    8    2 -99.9 -99.9 -999.9 -9.9 -9.999 -99.9 -99.99 -9.99
2019/12/11 02:24 PST  -99.99 -99.99    2  348    2 -99.9 -99.9 -999.9 -9.9 -9.999 -99.9 -99.99 -9.99
2019/12/11 02:30 PST  -99.99 -99.99    1   14    2 -99.9 -99.9 -999.9 -9.9 -9.999 -99.9 -99.99 -9.99
2019/12/11 02:36 PST  -99.99 -99.99 -999 -999 -999 -99.9 -99.9 -999.9 -9.9 -9.999 -99.9 -99.99 -9.99
2019/12/11 02:42 PST  -99.99 -99.99    2  338    2 -99.9 -99.9 -999.9 -9.9 -9.999 -99.9 -99.99 -9.99
2019/12/11 02:48 PST  -99.99 -99.99    3  316    3 -99.9 -99.9 -999.9 -9.9 -9.999 -99.9 -99.99 -9.99
2019/12/11 02:54 PST  -99.99 -99.99    2  329    3 -99.9 -99.9 -999.9 -9.9 -9.999 -99.9 -99.99 -9.99
2019/12/11 03:00 PST  -99.99 -99.99    3  352    3 -99.9 -99.9 -999.9 -9.9 -9.999 -99.9 -99.99 -9.99
2019/12/11 03:06 PST  -99.99 -99.99    3  339    4 -99.9 -99.9 -999.9 -9.9 -9.999 -99.9 -99.99 -9.99
2019/12/11 03:12 PST  -99.99 -99.99    3  353    3 -99.9 -99.9 -999.9 -9.9 -9.999 -99.9 -99.99 -9.99
2019/12/11 03:18 PST  -99.99 -99.99    3  349    3 -99.9 -99.9 -999.9 -9.9 -9.999 -99.9 -99.99 -9.99
2019/12/11 03:24 PST  -99.99 -99.99 -999 -999 -999 -99.9 -99.9 -999.9 -9.9 -9.999 -99.9 -99.99 -9.99
2019/12/11 03:30 PST  -99.99 -99.99    3  338    3 -99.9 -99.9 -999.9 -9.9 -9.999 -99.9 -99.99 -9.99
2019/12/11 03:36 PST  -99.99 -99.99 -999 -999 -999 -99.9 -99.9 -999.9 -9.9 -9.999 -99.9 -99.99 -9.99
2019/12/11 03:42 PST  -99.99 -99.99 -999 -999 -999 -99.9 -99.9 -999.9 -9.9 -9.999 -99.9 -99.99 -9.99
2019/12/11 03:48 PST  -99.99 -99.99 -999 -999 -999 -99.9 -99.9 -999.9 -9.9 -9.999 -99.9 -99.99 -9.99
2019/12/11 03:54 PST  -99.99 -99.99    4  317    5 -99.9 -99.9 -999.9 -9.9 -9.999 -99.9 -99.99 -9.99
2019/12/11 04:00 PST  -99.99 -99.99    4  318    4 -99.9 -99.9 -999.9 -9.9 -9.999 -99.9 -99.99 -9.99
2019/12/11 04:06 PST  -99.99 -99.99    3  319    3 -99.9 -99.9 -999.9 -9.9 -9.999 -99.9 -99.99 -9.99
2019/12/11 04:12 PST  -99.99 -99.99    3  326    3 -99.9 -99.9 -999.9 -9.9 -9.999 -99.9 -99.99 -9.99
2019/12/11 04:18 PST  -99.99 -99.99    2  338    2 -99.9 -99.9 -999.9 -9.9 -9.999 -99.9 -99.99 -9.99
2019/12/11 04:24 PST  -99.99 -99.99    4  350    4 -99.9 -99.9 -999.9 -9.9 -9.999 -99.9 -99.99 -9.99
2019/12/11 04:30 PST  -99.99 -99.99 -999 -999 -999 -99.9 -99.9 -999.9 -9.9 -9.999 -99.9 -99.99 -9.99
2019/12/11 04:36 PST  -99.99 -99.99    4  356    4 -99.9 -99.9 -999.9 -9.9 -9.999 -99.9 -99.99 -9.99
2019/12/11 04:42 PST  -99.99 -99.99    4  346    5 -99.9 -99.9 -999.9 -9.9 -9.999 -99.9 -99.99 -9.99
2019/12/11 04:48 PST  -99.99 -99.99 -999 -999 -999 -99.9 -99.9 -999.9 -9.9 -9.999 -99.9 -99.99 -9.99
2019/12/11 04:54 PST  -99.99 -99.99 -999 -999 -999 -99.9 -99.9 -999.9 -9.9 -9.999 -99.9 -99.99 -9.99
2019/12/11 05:00 PST  -99.99 -99.99 -999 -999 -999 -99.9 -99.9 -999.9 -9.9 -9.999 -99.9 -99.99 -9.99
2019/12/11 05:06 PST  -99.99 -99.99 -999 -999 -999 -99.9 -99.9 -999.9 -9.9 -9.999 -99.9 -99.99 -9.99
2019/12/11 05:12 PST  -99.99 -99.99 -999 -999 -999 -99.9 -99.9 -999.9 -9.9 -9.999 -99.9 -99.99 -9.99
2019/12/11 05:18 PST  -99.99 -99.99 -999 -999 -999 -99.9 -99.9 -999.9 -9.9 -9.999 -99.9 -99.99 -9.99
2019/12/11 05:24 PST  -99.99 -99.99    5  351    5 -99.9 -99.9 -999.9 -9.9 -9.999 -99.9 -99.99 -9.99
2019/12/11 05:30 PST  -99.99 -99.99 -999 -999 -999 -99.9 -99.9 -999.9 -9.9 -9.999 -99.9 -99.99 -9.99
2019/12/11 05:36 PST  -99.99 -99.99 -999 -999 -999 -99.9 -99.9 -999.9 -9.9 -9.999 -99.9 -99.99 -9.99
2019/12/11 05:42 PST  -99.99 -99.99    5    1    6 -99.9 -99.9 -999.9 -9.9 -9.999 -99.9 -99.99 -9.99
2019/12/11 05:48 PST  -99.99 -99.99    5    4    5 -99.9 -99.9 -999.9 -9.9 -9.999 -99.9 -99.99 -9.99
2019/12/11 05:54 PST  -99.99 -99.99    4    5    5 -99.9 -99.9 -999.9 -9.9 -9.999 -99.9 -99.99 -9.99
2019/12/11 06:00 PST  -99.99 -99.99 -999 -999 -999 -99.9 -99.9 -999.9 -9.9 -9.999 -99.9 -99.99 -9.99
2019/12/11 06:06 PST  -99.99 -99.99    3  348    4 -99.9 -99.9 -999.9 -9.9 -9.999 -99.9 -99.99 -9.99
2019/12/11 06:12 PST  -99.99 -99.99    3  327    4 -99.9 -99.9 -999.9 -9.9 -9.999 -99.9 -99.99 -9.99
2019/12/11 06:18 PST  -99.99 -99.99    4  323    4 -99.9 -99.9 -999.9 -9.9 -9.999 -99.9 -99.99 -9.99
2019/12/11 06:24 PST  -99.99 -99.99    4  343    4 -99.9 -99.9 -999.9 -9.9 -9.999 -99.9 -99.99 -9.99
2019/12/11 06:30 PST  -99.99 -99.99    4    1    4 -99.9 -99.9 -999.9 -9.9 -9.999 -99.9 -99.99 -9.99
2019/12/11 06:36 PST  -99.99 -99.99    4  354    4 -99.9 -99.9 -999.9 -9.9 -9.999 -99.9 -99.99 -9.99
2019/12/11 06:42 PST  -99.99 -99.99 -999 -999 -999 -99.9 -99.9 -999.9 -9.9 -9.999 -99.9 -99.99 -9.99
2019/12/11 06:48 PST  -99.99 -99.99    4  317    4 -99.9 -99.9 -999.9 -9.9 -9.999 -99.9 -99.99 -9.99
2019/12/11 06:54 PST  -99.99 -99.99    5  313    5 -99.9 -99.9 -999.9 -9.9 -9.999 -99.9 -99.99 -9.99
2019/12/11 07:00 PST  -99.99 -99.99    4  326    5 -99.9 -99.9 -999.9 -9.9 -9.999 -99.9 -99.99 -9.99
2019/12/11 07:06 PST  -99.99 -99.99    4  324    5 -99.9 -99.9 -999.9 -9.9 -9.999 -99.9 -99.99 -9.99
2019/12/11 07:12 PST  -99.99 -99.99    4  320    5 -99.9 -99.9 -999.9 -9.9 -9.999 -99.9 -99.99 -9.99
2019/12/11 07:18 PST  -99.99 -99.99    4  325    5 -99.9 -99.9 -999.9 -9.9 -9.999 -99.9 -99.99 -9.99
2019/12/11 07:24 PST  -99.99 -99.99    4  307    4 -99.9 -99.9 -999.9 -9.9 -9.999 -99.9 -99.99 -9.99
2019/12/11 07:30 PST  -99.99 -99.99    3  320    4 -99.9 -99.9 -999.9 -9.9 -9.999 -99.9 -99.99 -9.99
2019/12/11 07:36 PST  -99.99 -99.99    4  332    4 -99.9 -99.9 -999.9 -9.9 -9.999 -99.9 -99.99 -9.99
2019/12/11 07:42 PST  -99.99 -99.99    3  346    4 -99.9 -99.9 -999.9 -9.9 -9.999 -99.9 -99.99 -9.99
2019/12/11 07:48 PST  -99.99 -99.99    5  358    5 -99.9 -99.9 -999.9 -9.9 -9.999 -99.9 -99.99 -9.99
2019/12/11 07:54 PST  -99.99 -99.99    3  351    4 -99.9 -99.9 -999.9 -9.9 -9.999 -99.9 -99.99 -9.99
2019/12/11 08:00 PST  -99.99 -99.99    4  360    5 -99.9 -99.9 -999.9 -9.9 -9.999 -99.9 -99.99 -9.99
2019/12/11 08:06 PST  -99.99 -99.99    4  350    5 -99.9 -99.9 -999.9 -9.9 -9.999 -99.9 -99.99 -9.99
2019/12/11 08:12 PST  -99.99 -99.99    4  347    5 -99.9 -99.9 -999.9 -9.9 -9.999 -99.9 -99.99 -9.99
2019/12/11 08:18 PST  -99.99 -99.99    4  351    4 -99.9 -99.9 -999.9 -9.9 -9.999 -99.9 -99.99 -9.99
2019/12/11 08:24 PST  -99.99 -99.99    4    0    5 -99.9 -99.9 -999.9 -9.9 -9.999 -99.9 -99.99 -9.99
2019/12/11 08:30 PST  -99.99 -99.99 -999 -999 -999 -99.9 -99.9 -999.9 -9.9 -9.999 -99.9 -99.99 -9.99
2019/12/11 08:36 PST  -99.99 -99.99 -999 -999 -999 -99.9 -99.9 -999.9 -9.9 -9.999 -99.9 -99.99 -9.99
2019/12/11 08:42 PST  -99.99 -99.99 -999 -999 -999 -99.9 -99.9 -999.9 -9.9 -9.999 -99.9 -99.99 -9.99
2019/12/11 08:48 PST  -99.99 -99.99    3  310    3 -99.9 -99.9 -999.9 -9.9 -9.999 -99.9 -99.99 -9.99
2019/12/11 08:54 PST  -99.99 -99.99    2  310    3 -99.9 -99.9 -999.9 -9.9 -9.999 -99.9 -99.99 -9.99
2019/12/11 09:00 PST  -99.99 -99.99    4  332    4 -99.9 -99.9 -999.9 -9.9 -9.999 -99.9 -99.99 -9.99
2019/12/11 09:06 PST  -99.99 -99.99    4  355    4 -99.9 -99.9 -999.9 -9.9 -9.999 -99.9 -99.99 -9.99
2019/12/11 09:12 PST  -99.99 -99.99    3  336    4 -99.9 -99.9 -999.9 -9.9 -9.999 -99.9 -99.99 -9.99
2019/12/11 09:18 PST  -99.99 -99.99    3  359    3 -99.9 -99.9 -999.9 -9.9 -9.999 -99.9 -99.99 -9.99
2019/12/11 09:24 PST  -99.99 -99.99    2    0    2 -99.9 -99.9 -999.9 -9.9 -9.999 -99.9 -99.99 -9.99
2019/12/11 09:30 PST  -99.99 -99.99    4   31    4 -99.9 -99.9 -999.9 -9.9 -9.999 -99.9 -99.99 -9.99
2019/12/11 09:36 PST  -99.99 -99.99    6   30    7 -99.9 -99.9 -999.9 -9.9 -9.999 -99.9 -99.99 -9.99
2019/12/11 09:42 PST  -99.99 -99.99    6   32    6 -99.9 -99.9 -999.9 -9.9 -9.999 -99.9 -99.99 -9.99
2019/12/11 09:48 PST  -99.99 -99.99    5   49    5 -99.9 -99.9 -999.9 -9.9 -9.999 -99.9 -99.99 -9.99
2019/12/11 09:54 PST  -99.99 -99.99    4   84    4 -99.9 -99.9 -999.9 -9.9 -9.999 -99.9 -99.99 -9.99
2019/12/11 10:00 PST  -99.99 -99.99    4   75    5 -99.9 -99.9 -999.9 -9.9 -9.999 -99.9 -99.99 -9.99
2019/12/11 10:06 PST  -99.99 -99.99    4   91    4 -99.9 -99.9 -999.9 -9.9 -9.999 -99.9 -99.99 -9.99
2019/12/11 10:12 PST  -99.99 -99.99    3   98    4 -99.9 -99.9 -999.9 -9.9 -9.999 -99.9 -99.99 -9.99
2019/12/11 10:18 PST  -99.99 -99.99    2  111    2 -99.9 -99.9 -999.9 -9.9 -9.999 -99.9 -99.99 -9.99
2019/12/11 10:24 PST  -99.99 -99.99 -999 -999 -999 -99.9 -99.9 -999.9 -9.9 -9.999 -99.9 -99.99 -9.99
2019/12/11 10:30 PST  -99.99 -99.99    4   94    4 -99.9 -99.9 -999.9 -9.9 -9.999 -99.9 -99.99 -9.99
2019/12/11 10:36 PST  -99.99 -99.99 -999 -999 -999 -99.9 -99.9 -999.9 -9.9 -9.999 -99.9 -99.99 -9.99
2019/12/11 10:42 PST  -99.99 -99.99 -999 -999 -999 -99.9 -99.9 -999.9 -9.9 -9.999 -99.9 -99.99 -9.99
2019/12/11 10:48 PST  -99.99 -99.99    5  117    5 -99.9 -99.9 -999.9 -9.9 -9.999 -99.9 -99.99 -9.99
2019/12/11 10:54 PST  -99.99 -99.99    3  105    4 -99.9 -99.9 -999.9 -9.9 -9.999 -99.9 -99.99 -9.99
2019/12/11 11:00 PST  -99.99 -99.99 -999 -999 -999 -99.9 -99.9 -999.9 -9.9 -9.999 -99.9 -99.99 -9.99
2019/12/11 11:06 PST  -99.99 -99.99 -999 -999 -999 -99.9 -99.9 -999.9 -9.9 -9.999 -99.9 -99.99 -9.99
2019/12/11 11:12 PST  -99.99 -99.99    3  117    4 -99.9 -99.9 -999.9 -9.9 -9.999 -99.9 -99.99 -9.99
2019/12/11 11:18 PST  -99.99 -99.99    4  110    5 -99.9 -99.9 -999.9 -9.9 -9.999 -99.9 -99.99 -9.99
2019/12/11 11:24 PST  -99.99 -99.99    4  109    4 -99.9 -99.9 -999.9 -9.9 -9.999 -99.9 -99.99 -9.99
2019/12/11 11:30 PST  -99.99 -99.99    4  108    4 -99.9 -99.9 -999.9 -9.9 -9.999 -99.9 -99.99 -9.99
2019/12/11 11:36 PST  -99.99 -99.99    3  125    4 -99.9 -99.9 -999.9 -9.9 -9.999 -99.9 -99.99 -9.99
2019/12/11 11:42 PST  -99.99 -99.99    3  135    3 -99.9 -99.9 -999.9 -9.9 -9.999 -99.9 -99.99 -9.99
2019/12/11 11:48 PST  -99.99 -99.99    3  125    4 -99.9 -99.9 -999.9 -9.9 -9.999 -99.9 -99.99 -9.99
2019/12/11 11:54 PST  -99.99 -99.99    3  135    3 -99.9 -99.9 -999.9 -9.9 -9.999 -99.9 -99.99 -9.99
2019/12/11 12:00 PST  -99.99 -99.99    3  163    3 -99.9 -99.9 -999.9 -9.9 -9.999 -99.9 -99.99 -9.99
2019/12/11 12:06 PST  -99.99 -99.99    4  157    4 -99.9 -99.9 -999.9 -9.9 -9.999 -99.9 -99.99 -9.99
2019/12/11 12:12 PST  -99.99 -99.99    3  163    3 -99.9 -99.9 -999.9 -9.9 -9.999 -99.9 -99.99 -9.99
2019/12/11 12:18 PST  -99.99 -99.99    2  170    3 -99.9 -99.9 -999.9 -9.9 -9.999 -99.9 -99.99 -9.99
2019/12/11 12:24 PST  -99.99 -99.99    3  176    3 -99.9 -99.9 -999.9 -9.9 -9.999 -99.9 -99.99 -9.99
2019/12/11 12:30 PST  -99.99 -99.99    4  192    5 -99.9 -99.9 -999.9 -9.9 -9.999 -99.9 -99.99 -9.99
2019/12/11 12:36 PST  -99.99 -99.99    4  184    4 -99.9 -99.9 -999.9 -9.9 -9.999 -99.9 -99.99 -9.99
2019/12/11 12:42 PST  -99.99 -99.99    7  201    8 -99.9 -99.9 -999.9 -9.9 -9.999 -99.9 -99.99 -9.99
2019/12/11 12:48 PST  -99.99 -99.99 -999 -999 -999 -99.9 -99.9 -999.9 -9.9 -9.999 -99.9 -99.99 -9.99
2019/12/11 12:54 PST  -99.99 -99.99 -999 -999 -999 -99.9 -99.9 -999.9 -9.9 -9.999 -99.9 -99.99 -9.99
2019/12/11 13:00 PST  -99.99 -99.99 -999 -999 -999 -99.9 -99.9 -999.9 -9.9 -9.999 -99.9 -99.99 -9.99
2019/12/11 13:06 PST  -99.99 -99.99    6  207    6 -99.9 -99.9 -999.9 -9.9 -9.999 -99.9 -99.99 -9.99
2019/12/11 13:12 PST  -99.99 -99.99    7  210    7 -99.9 -99.9 -999.9 -9.9 -9.999 -99.9 -99.99 -9.99
2019/12/11 13:18 PST  -99.99 -99.99 -999 -999 -999 -99.9 -99.9 -999.9 -9.9 -9.999 -99.9 -99.99 -9.99
2019/12/11 13:24 PST  -99.99 -99.99    8  224    9 -99.9 -99.9 -999.9 -9.9 -9.999 -99.9 -99.99 -9.99
2019/12/11 13:30 PST  -99.99 -99.99    7  223    8 -99.9 -99.9 -999.9 -9.9 -9.999 -99.9 -99.99 -9.99
2019/12/11 13:36 PST  -99.99 -99.99    8  224   10 -99.9 -99.9 -999.9 -9.9 -9.999 -99.9 -99.99 -9.99
2019/12/11 13:42 PST  -99.99 -99.99 -999 -999 -999 -99.9 -99.9 -999.9 -9.9 -9.999 -99.9 -99.99 -9.99
2019/12/11 13:48 PST  -99.99 -99.99    8  219    9 -99.9 -99.9 -999.9 -9.9 -9.999 -99.9 -99.99 -9.99
2019/12/11 13:54 PST  -99.99 -99.99    7  230    9 -99.9 -99.9 -999.9 -9.9 -9.999 -99.9 -99.99 -9.99
2019/12/11 14:00 PST  -99.99 -99.99    8  241   10 -99.9 -99.9 -999.9 -9.9 -9.999 -99.9 -99.99 -9.99
2019/12/11 14:06 PST  -99.99 -99.99    6  230    9 -99.9 -99.9 -999.9 -9.9 -9.999 -99.9 -99.99 -9.99
2019/12/11 14:12 PST  -99.99 -99.99    6  234    8 -99.9 -99.9 -999.9 -9.9 -9.999 -99.9 -99.99 -9.99
2019/12/11 14:18 PST  -99.99 -99.99 -999 -999 -999 -99.9 -99.9 -999.9 -9.9 -9.999 -99.9 -99.99 -9.99
2019/12/11 14:24 PST  -99.99 -99.99    7  224    9 -99.9 -99.9 -999.9 -9.9 -9.999 -99.9 -99.99 -9.99
2019/12/11 14:30 PST  -99.99 -99.99    7  235    9 -99.9 -99.9 -999.9 -9.9 -9.999 -99.9 -99.99 -9.99
2019/12/11 14:36 PST  -99.99 -99.99    6  239    8 -99.9 -99.9 -999.9 -9.9 -9.999 -99.9 -99.99 -9.99
2019/12/11 14:42 PST  -99.99 -99.99    7  229    9 -99.9 -99.9 -999.9 -9.9 -9.999 -99.9 -99.99 -9.99
2019/12/11 14:48 PST  -99.99 -99.99    8  233    9 -99.9 -99.9 -999.9 -9.9 -9.999 -99.9 -99.99 -9.99
2019/12/11 14:54 PST  -99.99 -99.99    9  245   11 -99.9 -99.9 -999.9 -9.9 -9.999 -99.9 -99.99 -9.99
2019/12/11 15:00 PST  -99.99 -99.99    9  241   10 -99.9 -99.9 -999.9 -9.9 -9.999 -99.9 -99.99 -9.99
2019/12/11 15:06 PST  -99.99 -99.99    9  234   11 -99.9 -99.9 -999.9 -9.9 -9.999 -99.9 -99.99 -9.99
2019/12/11 15:12 PST  -99.99 -99.99    8  230   11 -99.9 -99.9 -999.9 -9.9 -9.999 -99.9 -99.99 -9.99
2019/12/11 15:18 PST  -99.99 -99.99    9  240   11 -99.9 -99.9 -999.9 -9.9 -9.999 -99.9 -99.99 -9.99
2019/12/11 15:24 PST  -99.99 -99.99   10  243   12 -99.9 -99.9 -999.9 -9.9 -9.999 -99.9 -99.99 -9.99
2019/12/11 15:30 PST  -99.99 -99.99    8  235   11 -99.9 -99.9 -999.9 -9.9 -9.999 -99.9 -99.99 -9.99
2019/12/11 15:36 PST  -99.99 -99.99   10  241   12 -99.9 -99.9 -999.9 -9.9 -9.999 -99.9 -99.99 -9.99
2019/12/11 15:42 PST  -99.99 -99.99    9  244   12 -99.9 -99.9 -999.9 -9.9 -9.999 -99.9 -99.99 -9.99
2019/12/11 15:48 PST  -99.99 -99.99    7  235    9 -99.9 -99.9 -999.9 -9.9 -9.999 -99.9 -99.99 -9.99
2019/12/11 15:54 PST  -99.99 -99.99 -999 -999 -999 -99.9 -99.9 -999.9 -9.9 -9.999 -99.9 -99.99 -9.99
2019/12/11 16:00 PST  -99.99 -99.99    6  234    7 -99.9 -99.9 -999.9 -9.9 -9.999 -99.9 -99.99 -9.99
2019/12/11 16:06 PST  -99.99 -99.99    5  236    6 -99.9 -99.9 -999.9 -9.9 -9.999 -99.9 -99.99 -9.99
2019/12/11 16:12 PST  -99.99 -99.99    7  238    8 -99.9 -99.9 -999.9 -9.9 -9.999 -99.9 -99.99 -9.99
2019/12/11 16:18 PST  -99.99 -99.99    7  237    8 -99.9 -99.9 -999.9 -9.9 -9.999 -99.9 -99.99 -9.99
2019/12/11 16:24 PST  -99.99 -99.99    8  245    9 -99.9 -99.9 -999.9 -9.9 -9.999 -99.9 -99.99 -9.99
2019/12/11 16:30 PST  -99.99 -99.99    8  250   10 -99.9 -99.9 -999.9 -9.9 -9.999 -99.9 -99.99 -9.99
2019/12/11 16:36 PST  -99.99 -99.99    8  255    9 -99.9 -99.9 -999.9 -9.9 -9.999 -99.9 -99.99 -9.99
2019/12/11 16:42 PST  -99.99 -99.99    8  253   10 -99.9 -99.9 -999.9 -9.9 -9.999 -99.9 -99.99 -9.99
2019/12/11 16:48 PST  -99.99 -99.99    9  257   10 -99.9 -99.9 -999.9 -9.9 -9.999 -99.9 -99.99 -9.99
2019/12/11 16:54 PST  -99.99 -99.99    7  265    8 -99.9 -99.9 -999.9 -9.9 -9.999 -99.9 -99.99 -9.99
2019/12/11 17:00 PST  -99.99 -99.99    7  264    9 -99.9 -99.9 -999.9 -9.9 -9.999 -99.9 -99.99 -9.99
2019/12/11 17:06 PST  -99.99 -99.99    5  268    6 -99.9 -99.9 -999.9 -9.9 -9.999 -99.9 -99.99 -9.99
2019/12/11 17:12 PST  -99.99 -99.99 -999 -999 -999 -99.9 -99.9 -999.9 -9.9 -9.999 -99.9 -99.99 -9.99
2019/12/11 17:18 PST  -99.99 -99.99 -999 -999 -999 -99.9 -99.9 -999.9 -9.9 -9.999 -99.9 -99.99 -9.99
2019/12/11 17:24 PST  -99.99 -99.99    4  248    5 -99.9 -99.9 -999.9 -9.9 -9.999 -99.9 -99.99 -9.99
2019/12/11 17:30 PST  -99.99 -99.99    3  247    4 -99.9 -99.9 -999.9 -9.9 -9.999 -99.9 -99.99 -9.99
2019/12/11 17:36 PST  -99.99 -99.99    2  248    3 -99.9 -99.9 -999.9 -9.9 -9.999 -99.9 -99.99 -9.99
2019/12/11 17:42 PST  -99.99 -99.99    2  272    3 -99.9 -99.9 -999.9 -9.9 -9.999 -99.9 -99.99 -9.99
2019/12/11 17:48 PST  -99.99 -99.99    1   16    1 -99.9 -99.9 -999.9 -9.9 -9.999 -99.9 -99.99 -9.99
2019/12/11 17:54 PST  -99.99 -99.99 -999 -999 -999 -99.9 -99.9 -999.9 -9.9 -9.999 -99.9 -99.99 -9.99
2019/12/11 18:00 PST  -99.99 -99.99 -999 -999 -999 -99.9 -99.9 -999.9 -9.9 -9.999 -99.9 -99.99 -9.99
2019/12/11 18:06 PST  -99.99 -99.99    3  219    3 -99.9 -99.9 -999.9 -9.9 -9.999 -99.9 -99.99 -9.99
2019/12/11 18:12 PST  -99.99 -99.99    3  243    3 -99.9 -99.9 -999.9 -9.9 -9.999 -99.9 -99.99 -9.99
2019/12/11 18:18 PST  -99.99 -99.99    2  239    3 -99.9 -99.9 -999.9 -9.9 -9.999 -99.9 -99.99 -9.99
2019/12/11 18:24 PST  -99.99 -99.99    3  262    3 -99.9 -99.9 -999.9 -9.9 -9.999 -99.9 -99.99 -9.99
2019/12/11 18:30 PST  -99.99 -99.99    5  244    6 -99.9 -99.9 -999.9 -9.9 -9.999 -99.9 -99.99 -9.99
2019/12/11 18:36 PST  -99.99 -99.99    4  254    5 -99.9 -99.9 -999.9 -9.9 -9.999 -99.9 -99.99 -9.99
2019/12/11 18:42 PST  -99.99 -99.99    4  265    4 -99.9 -99.9 -999.9 -9.9 -9.999 -99.9 -99.99 -9.99
2019/12/11 18:48 PST  -99.99 -99.99    4  249    5 -99.9 -99.9 -999.9 -9.9 -9.999 -99.9 -99.99 -9.99
2019/12/11 18:54 PST  -99.99 -99.99    4  248    5 -99.9 -99.9 -999.9 -9.9 -9.999 -99.9 -99.99 -9.99
2019/12/11 19:00 PST  -99.99 -99.99    5  243    6 -99.9 -99.9 -999.9 -9.9 -9.999 -99.9 -99.99 -9.99
2019/12/11 19:06 PST  -99.99 -99.99    8  220    8 -99.9 -99.9 -999.9 -9.9 -9.999 -99.9 -99.99 -9.99
2019/12/11 19:12 PST  -99.99 -99.99    7  220    8 -99.9 -99.9 -999.9 -9.9 -9.999 -99.9 -99.99 -9.99
2019/12/11 19:18 PST  -99.99 -99.99    7  219    7 -99.9 -99.9 -999.9 -9.9 -9.999 -99.9 -99.99 -9.99
2019/12/11 19:24 PST  -99.99 -99.99    6  220    7 -99.9 -99.9 -999.9 -9.9 -9.999 -99.9 -99.99 -9.99
2019/12/11 19:30 PST  -99.99 -99.99    5  258    6 -99.9 -99.9 -999.9 -9.9 -9.999 -99.9 -99.99 -9.99
2019/12/11 19:36 PST  -99.99 -99.99 -999 -999 -999 -99.9 -99.9 -999.9 -9.9 -9.999 -99.9 -99.99 -9.99
2019/12/11 19:42 PST  -99.99 -99.99    5  274    6 -99.9 -99.9 -999.9 -9.9 -9.999 -99.9 -99.99 -9.99
2019/12/11 19:48 PST  -99.99 -99.99    6  270    8 -99.9 -99.9 -999.9 -9.9 -9.999 -99.9 -99.99 -9.99
2019/12/11 19:54 PST  -99.99 -99.99 -999 -999 -999 -99.9 -99.9 -999.9 -9.9 -9.999 -99.9 -99.99 -9.99
2019/12/11 20:00 PST  -99.99 -99.99    6  281    8 -99.9 -99.9 -999.9 -9.9 -9.999 -99.9 -99.99 -9.99
2019/12/11 20:06 PST  -99.99 -99.99    5  268    5 -99.9 -99.9 -999.9 -9.9 -9.999 -99.9 -99.99 -9.99
2019/12/11 20:12 PST  -99.99 -99.99    4  268    4 -99.9 -99.9 -999.9 -9.9 -9.999 -99.9 -99.99 -9.99
2019/12/11 20:18 PST  -99.99 -99.99    4  268    4 -99.9 -99.9 -999.9 -9.9 -9.999 -99.9 -99.99 -9.99
2019/12/11 20:24 PST  -99.99 -99.99    2  255    3 -99.9 -99.9 -999.9 -9.9 -9.999 -99.9 -99.99 -9.99
2019/12/11 20:30 PST  -99.99 -99.99    2  236    3 -99.9 -99.9 -999.9 -9.9 -9.999 -99.9 -99.99 -9.99
2019/12/11 20:36 PST  -99.99 -99.99    5  213    5 -99.9 -99.9 -999.9 -9.9 -9.999 -99.9 -99.99 -9.99
2019/12/11 20:42 PST  -99.99 -99.99    6  203    6 -99.9 -99.9 -999.9 -9.9 -9.999 -99.9 -99.99 -9.99
2019/12/11 20:48 PST  -99.99 -99.99    6  180    6 -99.9 -99.9 -999.9 -9.9 -9.999 -99.9 -99.99 -9.99
2019/12/11 20:54 PST  -99.99 -99.99    5  184    6 -99.9 -99.9 -999.9 -9.9 -9.999 -99.9 -99.99 -9.99
2019/12/11 21:00 PST  -99.99 -99.99    4  184    5 -99.9 -99.9 -999.9 -9.9 -9.999 -99.9 -99.99 -9.99
2019/12/11 21:06 PST  -99.99 -99.99 -999 -999 -999 -99.9 -99.9 -999.9 -9.9 -9.999 -99.9 -99.99 -9.99
2019/12/11 21:12 PST  -99.99 -99.99    7  197    7 -99.9 -99.9 -999.9 -9.9 -9.999 -99.9 -99.99 -9.99
2019/12/11 21:18 PST  -99.99 -99.99    5  213    5 -99.9 -99.9 -999.9 -9.9 -9.999 -99.9 -99.99 -9.99
2019/12/11 21:24 PST  -99.99 -99.99 -999 -999 -999 -99.9 -99.9 -999.9 -9.9 -9.999 -99.9 -99.99 -9.99
2019/12/11 21:30 PST  -99.99 -99.99    3  211    3 -99.9 -99.9 -999.9 -9.9 -9.999 -99.9 -99.99 -9.99
2019/12/11 21:36 PST  -99.99 -99.99    3  179    3 -99.9 -99.9 -999.9 -9.9 -9.999 -99.9 -99.99 -9.99
2019/12/11 21:42 PST  -99.99 -99.99    4  186    4 -99.9 -99.9 -999.9 -9.9 -9.999 -99.9 -99.99 -9.99
2019/12/11 21:48 PST  -99.99 -99.99    2  252    3 -99.9 -99.9 -999.9 -9.9 -9.999 -99.9 -99.99 -9.99
2019/12/11 21:54 PST  -99.99 -99.99    3  297    4 -99.9 -99.9 -999.9 -9.9 -9.999 -99.9 -99.99 -9.99
2019/12/11 22:00 PST  -99.99 -99.99    2  296    3 -99.9 -99.9 -999.9 -9.9 -9.999 -99.9 -99.99 -9.99
2019/12/11 22:06 PST  -99.99 -99.99    2  324    2 -99.9 -99.9 -999.9 -9.9 -9.999 -99.9 -99.99 -9.99
2019/12/11 22:12 PST  -99.99 -99.99    2  351    2 -99.9 -99.9 -999.9 -9.9 -9.999 -99.9 -99.99 -9.99
2019/12/11 22:18 PST  -99.99 -99.99    0  346    1 -99.9 -99.9 -999.9 -9.9 -9.999 -99.9 -99.99 -9.99
2019/12/11 22:24 PST  -99.99 -99.99    2   24    3 -99.9 -99.9 -999.9 -9.9 -9.999 -99.9 -99.99 -9.99
2019/12/11 22:30 PST  -99.99 -99.99    1  335    1 -99.9 -99.9 -999.9 -9.9 -9.999 -99.9 -99.99 -9.99
2019/12/11 22:36 PST  -99.99 -99.99    2  313    2 -99.9 -99.9 -999.9 -9.9 -9.999 -99.9 -99.99 -9.99
2019/12/11 22:42 PST  -99.99 -99.99    3   45    3 -99.9 -99.9 -999.9 -9.9 -9.999 -99.9 -99.99 -9.99
2019/12/11 22:48 PST  -99.99 -99.99    2   44    3 -99.9 -99.9 -999.9 -9.9 -9.999 -99.9 -99.99 -9.99
2019/12/11 22:54 PST  -99.99 -99.99    3   83    3 -99.9 -99.9 -999.9 -9.9 -9.999 -99.9 -99.99 -9.99
2019/12/11 23:00 PST  -99.99 -99.99    1  185    1 -99.9 -99.9 -999.9 -9.9 -9.999 -99.9 -99.99 -9.99
2019/12/11 23:06 PST  -99.99 -99.99    1  119    1 -99.9 -99.9 -999.9 -9.9 -9.999 -99.9 -99.99 -9.99
2019/12/11 23:12 PST  -99.99 -99.99    1  282    2 -99.9 -99.9 -999.9 -9.9 -9.999 -99.9 -99.99 -9.99
2019/12/11 23:18 PST  -99.99 -99.99    2  303    3 -99.9 -99.9 -999.9 -9.9 -9.999 -99.9 -99.99 -9.99
2019/12/11 23:24 PST  -99.99 -99.99    1  339    2 -99.9 -99.9 -999.9 -9.9 -9.999 -99.9 -99.99 -9.99
2019/12/11 23:30 PST  -99.99 -99.99    3   51    4 -99.9 -99.9 -999.9 -9.9 -9.999 -99.9 -99.99 -9.99
2019/12/11 23:36 PST  -99.99 -99.99    7   65    8 -99.9 -99.9 -999.9 -9.9 -9.999 -99.9 -99.99 -9.99
2019/12/11 23:42 PST  -99.99 -99.99    6   62    7 -99.9 -99.9 -999.9 -9.9 -9.999 -99.9 -99.99 -9.99
2019/12/11 23:48 PST  -99.99 -99.99    6   58    7 -99.9 -99.9 -999.9 -9.9 -9.999 -99.9 -99.99 -9.99
2019/12/11 23:54 PST  -99.99 -99.99    6   52    6 -99.9 -99.9 -999.9 -9.9 -9.999 -99.9 -99.99 -9.99
2019/12/12 00:00 PST  -99.99 -99.99    6   59    7 -99.9 -99.9 -999.9 -9.9 -9.999 -99.9 -99.99 -9.99
2019/12/12 00:06 PST  -99.99 -99.99    6   70    7 -99.9 -99.9 -999.9 -9.9 -9.999 -99.9 -99.99 -9.99
2019/12/12 00:12 PST  -99.99 -99.99    5   69    6 -99.9 -99.9 -999.9 -9.9 -9.999 -99.9 -99.99 -9.99
2019/12/12 00:18 PST  -99.99 -99.99    6   71    7 -99.9 -99.9 -999.9 -9.9 -9.999 -99.9 -99.99 -9.99
2019/12/12 00:24 PST  -99.99 -99.99    6   65    6 -99.9 -99.9 -999.9 -9.9 -9.999 -99.9 -99.99 -9.99
2019/12/12 00:30 PST  -99.99 -99.99    5   61    5 -99.9 -99.9 -999.9 -9.9 -9.999 -99.9 -99.99 -9.99
2019/12/12 00:36 PST  -99.99 -99.99 -999 -999 -999 -99.9 -99.9 -999.9 -9.9 -9.999 -99.9 -99.99 -9.99
2019/12/12 00:42 PST  -99.99 -99.99    6   57    6 -99.9 -99.9 -999.9 -9.9 -9.999 -99.9 -99.99 -9.99
2019/12/12 00:48 PST  -99.99 -99.99    4   55    5 -99.9 -99.9 -999.9 -9.9 -9.999 -99.9 -99.99 -9.99
2019/12/12 00:54 PST  -99.99 -99.99    5   54    5 -99.9 -99.9 -999.9 -9.9 -9.999 -99.9 -99.99 -9.99
2019/12/12 01:00 PST  -99.99 -99.99    5   38    5 -99.9 -99.9 -999.9 -9.9 -9.999 -99.9 -99.99 -9.99
2019/12/12 01:06 PST  -99.99 -99.99    5   41    6 -99.9 -99.9 -999.9 -9.9 -9.999 -99.9 -99.99 -9.99
2019/12/12 01:12 PST  -99.99 -99.99    5   28    5 -99.9 -99.9 -999.9 -9.9 -9.999 -99.9 -99.99 -9.99
2019/12/12 01:18 PST  -99.99 -99.99    4   37    5 -99.9 -99.9 -999.9 -9.9 -9.999 -99.9 -99.99 -9.99
2019/12/12 01:24 PST  -99.99 -99.99    5   38    6 -99.9 -99.9 -999.9 -9.9 -9.999 -99.9 -99.99 -9.99
2019/12/12 01:30 PST  -99.99 -99.99    5   43    6 -99.9 -99.9 -999.9 -9.9 -9.999 -99.9 -99.99 -9.99
2019/12/12 01:36 PST  -99.99 -99.99    5   34    5 -99.9 -99.9 -999.9 -9.9 -9.999 -99.9 -99.99 -9.99
2019/12/12 01:42 PST  -99.99 -99.99    4   49    4 -99.9 -99.9 -999.9 -9.9 -9.999 -99.9 -99.99 -9.99
2019/12/12 01:48 PST  -99.99 -99.99    3   38    4 -99.9 -99.9 -999.9 -9.9 -9.999 -99.9 -99.99 -9.99
2019/12/12 01:54 PST  -99.99 -99.99    3   30    3 -99.9 -99.9 -999.9 -9.9 -9.999 -99.9 -99.99 -9.99
2019/12/12 02:00 PST  -99.99 -99.99    3   22    3 -99.9 -99.9 -999.9 -9.9 -9.999 -99.9 -99.99 -9.99
2019/12/12 02:06 PST  -99.99 -99.99    4   43    4 -99.9 -99.9 -999.9 -9.9 -9.999 -99.9 -99.99 -9.99
2019/12/12 02:12 PST  -99.99 -99.99 -999 -999 -999 -99.9 -99.9 -999.9 -9.9 -9.999 -99.9 -99.99 -9.99
2019/12/12 02:18 PST  -99.99 -99.99    5   45    5 -99.9 -99.9 -999.9 -9.9 -9.999 -99.9 -99.99 -9.99
2019/12/12 02:24 PST  -99.99 -99.99    5   18    6 -99.9 -99.9 -999.9 -9.9 -9.999 -99.9 -99.99 -9.99
2019/12/12 02:30 PST  -99.99 -99.99    4   17    5 -99.9 -99.9 -999.9 -9.9 -9.999 -99.9 -99.99 -9.99
2019/12/12 02:36 PST  -99.99 -99.99    4  342    5 -99.9 -99.9 -999.9 -9.9 -9.999 -99.9 -99.99 -9.99
2019/12/12 02:42 PST  -99.99 -99.99    5  339    6 -99.9 -99.9 -999.9 -9.9 -9.999 -99.9 -99.99 -9.99
2019/12/12 02:48 PST  -99.99 -99.99    5  341    5 -99.9 -99.9 -999.9 -9.9 -9.999 -99.9 -99.99 -9.99
2019/12/12 02:54 PST  -99.99 -99.99    4  351    4 -99.9 -99.9 -999.9 -9.9 -9.999 -99.9 -99.99 -9.99
2019/12/12 03:00 PST  -99.99 -99.99    6  350    6 -99.9 -99.9 -999.9 -9.9 -9.999 -99.9 -99.99 -9.99
2019/12/12 03:06 PST  -99.99 -99.99    4  328    5 -99.9 -99.9 -999.9 -9.9 -9.999 -99.9 -99.99 -9.99
2019/12/12 03:12 PST  -99.99 -99.99    3  339    4 -99.9 -99.9 -999.9 -9.9 -9.999 -99.9 -99.99 -9.99
2019/12/12 03:18 PST  -99.99 -99.99    4  341    4 -99.9 -99.9 -999.9 -9.9 -9.999 -99.9 -99.99 -9.99
2019/12/12 03:24 PST  -99.99 -99.99    3  322    3 -99.9 -99.9 -999.9 -9.9 -9.999 -99.9 -99.99 -9.99
2019/12/12 03:30 PST  -99.99 -99.99 -999 -999 -999 -99.9 -99.9 -999.9 -9.9 -9.999 -99.9 -99.99 -9.99
2019/12/12 03:36 PST  -99.99 -99.99 -999 -999 -999 -99.9 -99.9 -999.9 -9.9 -9.999 -99.9 -99.99 -9.99
2019/12/12 03:42 PST  -99.99 -99.99    3  352    4 -99.9 -99.9 -999.9 -9.9 -9.999 -99.9 -99.99 -9.99
2019/12/12 03:48 PST  -99.99 -99.99 -999 -999 -999 -99.9 -99.9 -999.9 -9.9 -9.999 -99.9 -99.99 -9.99
2019/12/12 03:54 PST  -99.99 -99.99    4  346    4 -99.9 -99.9 -999.9 -9.9 -9.999 -99.9 -99.99 -9.99
2019/12/12 04:00 PST  -99.99 -99.99    4  344    4 -99.9 -99.9 -999.9 -9.9 -9.999 -99.9 -99.99 -9.99
2019/12/12 04:06 PST  -99.99 -99.99    4  335    5 -99.9 -99.9 -999.9 -9.9 -9.999 -99.9 -99.99 -9.99
2019/12/12 04:12 PST  -99.99 -99.99    4  332    5 -99.9 -99.9 -999.9 -9.9 -9.999 -99.9 -99.99 -9.99
2019/12/12 04:18 PST  -99.99 -99.99    4  332    4 -99.9 -99.9 -999.9 -9.9 -9.999 -99.9 -99.99 -9.99
2019/12/12 04:24 PST  -99.99 -99.99    4  323    5 -99.9 -99.9 -999.9 -9.9 -9.999 -99.9 -99.99 -9.99
2019/12/12 04:30 PST  -99.99 -99.99 -999 -999 -999 -99.9 -99.9 -999.9 -9.9 -9.999 -99.9 -99.99 -9.99
2019/12/12 04:36 PST  -99.99 -99.99    3    0    4 -99.9 -99.9 -999.9 -9.9 -9.999 -99.9 -99.99 -9.99
2019/12/12 04:42 PST  -99.99 -99.99    4   17    5 -99.9 -99.9 -999.9 -9.9 -9.999 -99.9 -99.99 -9.99
2019/12/12 04:48 PST  -99.99 -99.99    4    4    5 -99.9 -99.9 -999.9 -9.9 -9.999 -99.9 -99.99 -9.99
2019/12/12 04:54 PST  -99.99 -99.99 -999 -999 -999 -99.9 -99.9 -999.9 -9.9 -9.999 -99.9 -99.99 -9.99
2019/12/12 05:00 PST  -99.99 -99.99    5    1    5 -99.9 -99.9 -999.9 -9.9 -9.999 -99.9 -99.99 -9.99
2019/12/12 05:06 PST  -99.99 -99.99    4  349    5 -99.9 -99.9 -999.9 -9.9 -9.999 -99.9 -99.99 -9.99
2019/12/12 05:12 PST  -99.99 -99.99    4  339    4 -99.9 -99.9 -999.9 -9.9 -9.999 -99.9 -99.99 -9.99
2019/12/12 05:18 PST  -99.99 -99.99    3  323    3 -99.9 -99.9 -999.9 -9.9 -9.999 -99.9 -99.99 -9.99
2019/12/12 05:24 PST  -99.99 -99.99    3  314    3 -99.9 -99.9 -999.9 -9.9 -9.999 -99.9 -99.99 -9.99
2019/12/12 05:30 PST  -99.99 -99.99    2  310    2 -99.9 -99.9 -999.9 -9.9 -9.999 -99.9 -99.99 -9.99
2019/12/12 05:36 PST  -99.99 -99.99    2  296    2 -99.9 -99.9 -999.9 -9.9 -9.999 -99.9 -99.99 -9.99
2019/12/12 05:42 PST  -99.99 -99.99 -999 -999 -999 -99.9 -99.9 -999.9 -9.9 -9.999 -99.9 -99.99 -9.99
2019/12/12 05:48 PST  -99.99 -99.99    0    0    0 -99.9 -99.9 -999.9 -9.9 -9.999 -99.9 -99.99 -9.99
2019/12/12 05:54 PST  -99.99 -99.99 -999 -999 -999 -99.9 -99.9 -999.9 -9.9 -9.999 -99.9 -99.99 -9.99
2019/12/12 06:00 PST  -99.99 -99.99    1   21    2 -99.9 -99.9 -999.9 -9.9 -9.999 -99.9 -99.99 -9.99
2019/12/12 06:06 PST  -99.99 -99.99    3  351    4 -99.9 -99.9 -999.9 -9.9 -9.999 -99.9 -99.99 -9.99
2019/12/12 06:12 PST  -99.99 -99.99    4  349    4 -99.9 -99.9 -999.9 -9.9 -9.999 -99.9 -99.99 -9.99
2019/12/12 06:18 PST  -99.99 -99.99    3  360    4 -99.9 -99.9 -999.9 -9.9 -9.999 -99.9 -99.99 -9.99
2019/12/12 06:24 PST  -99.99 -99.99    4  352    4 -99.9 -99.9 -999.9 -9.9 -9.999 -99.9 -99.99 -9.99
2019/12/12 06:30 PST  -99.99 -99.99    3  352    4 -99.9 -99.9 -999.9 -9.9 -9.999 -99.9 -99.99 -9.99
2019/12/12 06:36 PST  -99.99 -99.99    3  343    3 -99.9 -99.9 -999.9 -9.9 -9.999 -99.9 -99.99 -9.99
2019/12/12 06:42 PST  -99.99 -99.99    3  319    3 -99.9 -99.9 -999.9 -9.9 -9.999 -99.9 -99.99 -9.99
2019/12/12 06:48 PST  -99.99 -99.99    3  311    3 -99.9 -99.9 -999.9 -9.9 -9.999 -99.9 -99.99 -9.99
2019/12/12 06:54 PST  -99.99 -99.99 -999 -999 -999 -99.9 -99.9 -999.9 -9.9 -9.999 -99.9 -99.99 -9.99
2019/12/12 07:00 PST  -99.99 -99.99    3  271    3 -99.9 -99.9 -999.9 -9.9 -9.999 -99.9 -99.99 -9.99
2019/12/12 07:06 PST  -99.99 -99.99    3  297    3 -99.9 -99.9 -999.9 -9.9 -9.999 -99.9 -99.99 -9.99
2019/12/12 07:12 PST  -99.99 -99.99    3  290    3 -99.9 -99.9 -999.9 -9.9 -9.999 -99.9 -99.99 -9.99
2019/12/12 07:18 PST  -99.99 -99.99    3  317    3 -99.9 -99.9 -999.9 -9.9 -9.999 -99.9 -99.99 -9.99
2019/12/12 07:24 PST  -99.99 -99.99    3  332    3 -99.9 -99.9 -999.9 -9.9 -9.999 -99.9 -99.99 -9.99
2019/12/12 07:30 PST  -99.99 -99.99    2  335    3 -99.9 -99.9 -999.9 -9.9 -9.999 -99.9 -99.99 -9.99
2019/12/12 07:36 PST  -99.99 -99.99    2  338    2 -99.9 -99.9 -999.9 -9.9 -9.999 -99.9 -99.99 -9.99
2019/12/12 07:42 PST  -99.99 -99.99    2  343    3 -99.9 -99.9 -999.9 -9.9 -9.999 -99.9 -99.99 -9.99
2019/12/12 07:48 PST  -99.99 -99.99    1  320    1 -99.9 -99.9 -999.9 -9.9 -9.999 -99.9 -99.99 -9.99
2019/12/12 07:54 PST  -99.99 -99.99 -999 -999 -999 -99.9 -99.9 -999.9 -9.9 -9.999 -99.9 -99.99 -9.99
2019/12/12 08:00 PST  -99.99 -99.99    2  341    2 -99.9 -99.9 -999.9 -9.9 -9.999 -99.9 -99.99 -9.99
2019/12/12 08:06 PST  -99.99 -99.99    2  324    2 -99.9 -99.9 -999.9 -9.9 -9.999 -99.9 -99.99 -9.99
2019/12/12 08:12 PST  -99.99 -99.99    2  344    2 -99.9 -99.9 -999.9 -9.9 -9.999 -99.9 -99.99 -9.99
2019/12/12 08:18 PST  -99.99 -99.99    2    6    2 -99.9 -99.9 -999.9 -9.9 -9.999 -99.9 -99.99 -9.99
2019/12/12 08:24 PST  -99.99 -99.99    2    7    2 -99.9 -99.9 -999.9 -9.9 -9.999 -99.9 -99.99 -9.99
2019/12/12 08:30 PST  -99.99 -99.99    3    9    3 -99.9 -99.9 -999.9 -9.9 -9.999 -99.9 -99.99 -9.99
2019/12/12 08:36 PST  -99.99 -99.99 -999 -999 -999 -99.9 -99.9 -999.9 -9.9 -9.999 -99.9 -99.99 -9.99
2019/12/12 08:42 PST  -99.99 -99.99    4   17    4 -99.9 -99.9 -999.9 -9.9 -9.999 -99.9 -99.99 -9.99
2019/12/12 08:48 PST  -99.99 -99.99    4   30    5 -99.9 -99.9 -999.9 -9.9 -9.999 -99.9 -99.99 -9.99
2019/12/12 08:54 PST  -99.99 -99.99    4   36    4 -99.9 -99.9 -999.9 -9.9 -9.999 -99.9 -99.99 -9.99
2019/12/12 09:00 PST  -99.99 -99.99    2   47    3 -99.9 -99.9 -999.9 -9.9 -9.999 -99.9 -99.99 -9.99
2019/12/12 09:06 PST  -99.99 -99.99    3   47    4 -99.9 -99.9 -999.9 -9.9 -9.999 -99.9 -99.99 -9.99
2019/12/12 09:12 PST  -99.99 -99.99    3   51    4 -99.9 -99.9 -999.9 -9.9 -9.999 -99.9 -99.99 -9.99
2019/12/12 09:18 PST  -99.99 -99.99 -999 -999 -999 -99.9 -99.9 -999.9 -9.9 -9.999 -99.9 -99.99 -9.99
2019/12/12 09:24 PST  -99.99 -99.99    2   91    3 -99.9 -99.9 -999.9 -9.9 -9.999 -99.9 -99.99 -9.99
2019/12/12 09:30 PST  -99.99 -99.99    2  109    3 -99.9 -99.9 -999.9 -9.9 -9.999 -99.9 -99.99 -9.99
2019/12/12 09:36 PST  -99.99 -99.99    3   91    4 -99.9 -99.9 -999.9 -9.9 -9.999 -99.9 -99.99 -9.99
2019/12/12 09:42 PST  -99.99 -99.99    2   77    3 -99.9 -99.9 -999.9 -9.9 -9.999 -99.9 -99.99 -9.99
2019/12/12 09:48 PST  -99.99 -99.99    3   59    3 -99.9 -99.9 -999.9 -9.9 -9.999 -99.9 -99.99 -9.99
2019/12/12 09:54 PST  -99.99 -99.99    3   71    3 -99.9 -99.9 -999.9 -9.9 -9.999 -99.9 -99.99 -9.99
2019/12/12 10:00 PST  -99.99 -99.99    3   63    4 -99.9 -99.9 -999.9 -9.9 -9.999 -99.9 -99.99 -9.99
2019/12/12 10:06 PST  -99.99 -99.99    2   76    3 -99.9 -99.9 -999.9 -9.9 -9.999 -99.9 -99.99 -9.99
2019/12/12 10:12 PST  -99.99 -99.99    3   83    3 -99.9 -99.9 -999.9 -9.9 -9.999 -99.9 -99.99 -9.99
2019/12/12 10:18 PST  -99.99 -99.99    2   74    2 -99.9 -99.9 -999.9 -9.9 -9.999 -99.9 -99.99 -9.99
2019/12/12 10:24 PST  -99.99 -99.99    3   84    4 -99.9 -99.9 -999.9 -9.9 -9.999 -99.9 -99.99 -9.99
2019/12/12 10:30 PST  -99.99 -99.99    3   84    4 -99.9 -99.9 -999.9 -9.9 -9.999 -99.9 -99.99 -9.99
2019/12/12 10:36 PST  -99.99 -99.99    4   97    4 -99.9 -99.9 -999.9 -9.9 -9.999 -99.9 -99.99 -9.99
2019/12/12 10:42 PST  -99.99 -99.99    4  123    4 -99.9 -99.9 -999.9 -9.9 -9.999 -99.9 -99.99 -9.99
2019/12/12 10:48 PST  -99.99 -99.99    4  110    4 -99.9 -99.9 -999.9 -9.9 -9.999 -99.9 -99.99 -9.99
2019/12/12 10:54 PST  -99.99 -99.99    3   94    4 -99.9 -99.9 -999.9 -9.9 -9.999 -99.9 -99.99 -9.99
2019/12/12 11:00 PST  -99.99 -99.99    4  115    4 -99.9 -99.9 -999.9 -9.9 -9.999 -99.9 -99.99 -9.99
2019/12/12 11:06 PST  -99.99 -99.99    4  104    5 -99.9 -99.9 -999.9 -9.9 -9.999 -99.9 -99.99 -9.99
2019/12/12 11:12 PST  -99.99 -99.99    4   96    5 -99.9 -99.9 -999.9 -9.9 -9.999 -99.9 -99.99 -9.99
2019/12/12 11:18 PST  -99.99 -99.99 -999 -999 -999 -99.9 -99.9 -999.9 -9.9 -9.999 -99.9 -99.99 -9.99
2019/12/12 11:24 PST  -99.99 -99.99    4  101    5 -99.9 -99.9 -999.9 -9.9 -9.999 -99.9 -99.99 -9.99
2019/12/12 11:30 PST  -99.99 -99.99    4   90    4 -99.9 -99.9 -999.9 -9.9 -9.999 -99.9 -99.99 -9.99
2019/12/12 11:36 PST  -99.99 -99.99 -999 -999 -999 -99.9 -99.9 -999.9 -9.9 -9.999 -99.9 -99.99 -9.99
2019/12/12 11:42 PST  -99.99 -99.99    4   99    4 -99.9 -99.9 -999.9 -9.9 -9.999 -99.9 -99.99 -9.99
2019/12/12 11:48 PST  -99.99 -99.99    4   91    5 -99.9 -99.9 -999.9 -9.9 -9.999 -99.9 -99.99 -9.99
2019/12/12 11:54 PST  -99.99 -99.99    4  102    5 -99.9 -99.9 -999.9 -9.9 -9.999 -99.9 -99.99 -9.99
2019/12/12 12:00 PST  -99.99 -99.99    4  102    4 -99.9 -99.9 -999.9 -9.9 -9.999 -99.9 -99.99 -9.99
2019/12/12 12:06 PST  -99.99 -99.99    4   84    5 -99.9 -99.9 -999.9 -9.9 -9.999 -99.9 -99.99 -9.99
2019/12/12 12:12 PST  -99.99 -99.99    5   83    5 -99.9 -99.9 -999.9 -9.9 -9.999 -99.9 -99.99 -9.99
2019/12/12 12:18 PST  -99.99 -99.99    4   82    4 -99.9 -99.9 -999.9 -9.9 -9.999 -99.9 -99.99 -9.99
2019/12/12 12:24 PST  -99.99 -99.99    4   90    5 -99.9 -99.9 -999.9 -9.9 -9.999 -99.9 -99.99 -9.99
2019/12/12 12:30 PST  -99.99 -99.99    4   85    4 -99.9 -99.9 -999.9 -9.9 -9.999 -99.9 -99.99 -9.99
2019/12/12 12:36 PST  -99.99 -99.99 -999 -999 -999 -99.9 -99.9 -999.9 -9.9 -9.999 -99.9 -99.99 -9.99
2019/12/12 12:42 PST  -99.99 -99.99    4  121    5 -99.9 -99.9 -999.9 -9.9 -9.999 -99.9 -99.99 -9.99
2019/12/12 12:48 PST  -99.99 -99.99    4  125    4 -99.9 -99.9 -999.9 -9.9 -9.999 -99.9 -99.99 -9.99
2019/12/12 12:54 PST  -99.99 -99.99    4  130    4 -99.9 -99.9 -999.9 -9.9 -9.999 -99.9 -99.99 -9.99
2019/12/12 13:00 PST  -99.99 -99.99    2  131    3 -99.9 -99.9 -999.9 -9.9 -9.999 -99.9 -99.99 -9.99
2019/12/12 13:06 PST  -99.99 -99.99    3  164    4 -99.9 -99.9 -999.9 -9.9 -9.999 -99.9 -99.99 -9.99
2019/12/12 13:12 PST  -99.99 -99.99    3  182    4 -99.9 -99.9 -999.9 -9.9 -9.999 -99.9 -99.99 -9.99
2019/12/12 13:18 PST  -99.99 -99.99    4  164    4 -99.9 -99.9 -999.9 -9.9 -9.999 -99.9 -99.99 -9.99
2019/12/12 13:24 PST  -99.99 -99.99 -999 -999 -999 -99.9 -99.9 -999.9 -9.9 -9.999 -99.9 -99.99 -9.99
2019/12/12 13:30 PST  -99.99 -99.99    2  161    3 -99.9 -99.9 -999.9 -9.9 -9.999 -99.9 -99.99 -9.99
2019/12/12 13:36 PST  -99.99 -99.99    4  180    4 -99.9 -99.9 -999.9 -9.9 -9.999 -99.9 -99.99 -9.99
2019/12/12 13:42 PST  -99.99 -99.99    4  180    4 -99.9 -99.9 -999.9 -9.9 -9.999 -99.9 -99.99 -9.99
2019/12/12 13:48 PST  -99.99 -99.99    3  190    3 -99.9 -99.9 -999.9 -9.9 -9.999 -99.9 -99.99 -9.99
2019/12/12 13:54 PST  -99.99 -99.99    4  207    5 -99.9 -99.9 -999.9 -9.9 -9.999 -99.9 -99.99 -9.99
2019/12/12 14:00 PST  -99.99 -99.99    5  181    5 -99.9 -99.9 -999.9 -9.9 -9.999 -99.9 -99.99 -9.99
2019/12/12 14:06 PST  -99.99 -99.99    5  180    6 -99.9 -99.9 -999.9 -9.9 -9.999 -99.9 -99.99 -9.99
2019/12/12 14:12 PST  -99.99 -99.99    5  178    6 -99.9 -99.9 -999.9 -9.9 -9.999 -99.9 -99.99 -9.99
2019/12/12 14:18 PST  -99.99 -99.99    5  182    5 -99.9 -99.9 -999.9 -9.9 -9.999 -99.9 -99.99 -9.99
2019/12/12 14:24 PST  -99.99 -99.99    4  183    5 -99.9 -99.9 -999.9 -9.9 -9.999 -99.9 -99.99 -9.99
2019/12/12 14:30 PST  -99.99 -99.99    4  191    4 -99.9 -99.9 -999.9 -9.9 -9.999 -99.9 -99.99 -9.99
2019/12/12 14:36 PST  -99.99 -99.99 -999 -999 -999 -99.9 -99.9 -999.9 -9.9 -9.999 -99.9 -99.99 -9.99
2019/12/12 14:42 PST  -99.99 -99.99 -999 -999 -999 -99.9 -99.9 -999.9 -9.9 -9.999 -99.9 -99.99 -9.99
2019/12/12 14:48 PST  -99.99 -99.99    5  209    6 -99.9 -99.9 -999.9 -9.9 -9.999 -99.9 -99.99 -9.99
2019/12/12 14:54 PST  -99.99 -99.99    5  204    5 -99.9 -99.9 -999.9 -9.9 -9.999 -99.9 -99.99 -9.99
2019/12/12 15:00 PST  -99.99 -99.99 -999 -999 -999 -99.9 -99.9 -999.9 -9.9 -9.999 -99.9 -99.99 -9.99
2019/12/12 15:06 PST  -99.99 -99.99    5  193    6 -99.9 -99.9 -999.9 -9.9 -9.999 -99.9 -99.99 -9.99
2019/12/12 15:12 PST  -99.99 -99.99    4  185    5 -99.9 -99.9 -999.9 -9.9 -9.999 -99.9 -99.99 -9.99
2019/12/12 15:18 PST  -99.99 -99.99    5  173    5 -99.9 -99.9 -999.9 -9.9 -9.999 -99.9 -99.99 -9.99
2019/12/12 15:24 PST  -99.99 -99.99    5  186    6 -99.9 -99.9 -999.9 -9.9 -9.999 -99.9 -99.99 -9.99
2019/12/12 15:30 PST  -99.99 -99.99    5  177    6 -99.9 -99.9 -999.9 -9.9 -9.999 -99.9 -99.99 -9.99
2019/12/12 15:36 PST  -99.99 -99.99    5  176    5 -99.9 -99.9 -999.9 -9.9 -9.999 -99.9 -99.99 -9.99
2019/12/12 15:42 PST  -99.99 -99.99    5  184    6 -99.9 -99.9 -999.9 -9.9 -9.999 -99.9 -99.99 -9.99
2019/12/12 15:48 PST  -99.99 -99.99    5  185    6 -99.9 -99.9 -999.9 -9.9 -9.999 -99.9 -99.99 -9.99
2019/12/12 15:54 PST  -99.99 -99.99    5  183    5 -99.9 -99.9 -999.9 -9.9 -9.999 -99.9 -99.99 -9.99
2019/12/12 16:00 PST  -99.99 -99.99 -999 -999 -999 -99.9 -99.9 -999.9 -9.9 -9.999 -99.9 -99.99 -9.99
2019/12/12 16:06 PST  -99.99 -99.99    5  191    5 -99.9 -99.9 -999.9 -9.9 -9.999 -99.9 -99.99 -9.99
2019/12/12 16:12 PST  -99.99 -99.99    5  197    6 -99.9 -99.9 -999.9 -9.9 -9.999 -99.9 -99.99 -9.99
2019/12/12 16:18 PST  -99.99 -99.99    5  203    5 -99.9 -99.9 -999.9 -9.9 -9.999 -99.9 -99.99 -9.99
2019/12/12 16:24 PST  -99.99 -99.99    5  204    5 -99.9 -99.9 -999.9 -9.9 -9.999 -99.9 -99.99 -9.99
2019/12/12 16:30 PST  -99.99 -99.99    4  206    5 -99.9 -99.9 -999.9 -9.9 -9.999 -99.9 -99.99 -9.99
2019/12/12 16:36 PST  -99.99 -99.99    5  216    6 -99.9 -99.9 -999.9 -9.9 -9.999 -99.9 -99.99 -9.99
2019/12/12 16:42 PST  -99.99 -99.99 -999 -999 -999 -99.9 -99.9 -999.9 -9.9 -9.999 -99.9 -99.99 -9.99
2019/12/12 16:48 PST  -99.99 -99.99    6  225    7 -99.9 -99.9 -999.9 -9.9 -9.999 -99.9 -99.99 -9.99
2019/12/12 16:54 PST  -99.99 -99.99    6  220    7 -99.9 -99.9 -999.9 -9.9 -9.999 -99.9 -99.99 -9.99
2019/12/12 17:00 PST  -99.99 -99.99    7  225    8 -99.9 -99.9 -999.9 -9.9 -9.999 -99.9 -99.99 -9.99
2019/12/12 17:06 PST  -99.99 -99.99    6  227    7 -99.9 -99.9 -999.9 -9.9 -9.999 -99.9 -99.99 -9.99
2019/12/12 17:12 PST  -99.99 -99.99    7  234    7 -99.9 -99.9 -999.9 -9.9 -9.999 -99.9 -99.99 -9.99
2019/12/12 17:18 PST  -99.99 -99.99    6  238    6 -99.9 -99.9 -999.9 -9.9 -9.999 -99.9 -99.99 -9.99
2019/12/12 17:24 PST  -99.99 -99.99    6  241    6 -99.9 -99.9 -999.9 -9.9 -9.999 -99.9 -99.99 -9.99
2019/12/12 17:30 PST  -99.99 -99.99    5  248    6 -99.9 -99.9 -999.9 -9.9 -9.999 -99.9 -99.99 -9.99
2019/12/12 17:36 PST  -99.99 -99.99    6  249    7 -99.9 -99.9 -999.9 -9.9 -9.999 -99.9 -99.99 -9.99
2019/12/12 17:42 PST  -99.99 -99.99    5  253    5 -99.9 -99.9 -999.9 -9.9 -9.999 -99.9 -99.99 -9.99
2019/12/12 17:48 PST  -99.99 -99.99    4  245    5 -99.9 -99.9 -999.9 -9.9 -9.999 -99.9 -99.99 -9.99
2019/12/12 17:54 PST  -99.99 -99.99    4  237    4 -99.9 -99.9 -999.9 -9.9 -9.999 -99.9 -99.99 -9.99
2019/12/12 18:00 PST  -99.99 -99.99    4  249    4 -99.9 -99.9 -999.9 -9.9 -9.999 -99.9 -99.99 -9.99
2019/12/12 18:06 PST  -99.99 -99.99    4  263    4 -99.9 -99.9 -999.9 -9.9 -9.999 -99.9 -99.99 -9.99
2019/12/12 18:12 PST  -99.99 -99.99    2  294    2 -99.9 -99.9 -999.9 -9.9 -9.999 -99.9 -99.99 -9.99
2019/12/12 18:18 PST  -99.99 -99.99    2  284    2 -99.9 -99.9 -999.9 -9.9 -9.999 -99.9 -99.99 -9.99
2019/12/12 18:24 PST  -99.99 -99.99    2  302    2 -99.9 -99.9 -999.9 -9.9 -9.999 -99.9 -99.99 -9.99
2019/12/12 18:30 PST  -99.99 -99.99    2  308    2 -99.9 -99.9 -999.9 -9.9 -9.999 -99.9 -99.99 -9.99
2019/12/12 18:36 PST  -99.99 -99.99    4  318    5 -99.9 -99.9 -999.9 -9.9 -9.999 -99.9 -99.99 -9.99
2019/12/12 18:42 PST  -99.99 -99.99    4  326    5 -99.9 -99.9 -999.9 -9.9 -9.999 -99.9 -99.99 -9.99
2019/12/12 18:48 PST  -99.99 -99.99    3  323    3 -99.9 -99.9 -999.9 -9.9 -9.999 -99.9 -99.99 -9.99
2019/12/12 18:54 PST  -99.99 -99.99    3  347    3 -99.9 -99.9 -999.9 -9.9 -9.999 -99.9 -99.99 -9.99
2019/12/12 19:00 PST  -99.99 -99.99    4    7    5 -99.9 -99.9 -999.9 -9.9 -9.999 -99.9 -99.99 -9.99
2019/12/12 19:06 PST  -99.99 -99.99    4  357    4 -99.9 -99.9 -999.9 -9.9 -9.999 -99.9 -99.99 -9.99
2019/12/12 19:12 PST  -99.99 -99.99    3    4    3 -99.9 -99.9 -999.9 -9.9 -9.999 -99.9 -99.99 -9.99
2019/12/12 19:18 PST  -99.99 -99.99 -999 -999 -999 -99.9 -99.9 -999.9 -9.9 -9.999 -99.9 -99.99 -9.99
2019/12/12 19:24 PST  -99.99 -99.99    2    7    2 -99.9 -99.9 -999.9 -9.9 -9.999 -99.9 -99.99 -9.99
2019/12/12 19:30 PST  -99.99 -99.99    4   25    4 -99.9 -99.9 -999.9 -9.9 -9.999 -99.9 -99.99 -9.99
2019/12/12 19:36 PST  -99.99 -99.99    3   26    4 -99.9 -99.9 -999.9 -9.9 -9.999 -99.9 -99.99 -9.99
2019/12/12 19:42 PST  -99.99 -99.99    3   30    3 -99.9 -99.9 -999.9 -9.9 -9.999 -99.9 -99.99 -9.99
2019/12/12 19:48 PST  -99.99 -99.99    3   36    3 -99.9 -99.9 -999.9 -9.9 -9.999 -99.9 -99.99 -9.99
2019/12/12 19:54 PST  -99.99 -99.99    2   41    2 -99.9 -99.9 -999.9 -9.9 -9.999 -99.9 -99.99 -9.99
2019/12/12 20:00 PST  -99.99 -99.99    4   43    5 -99.9 -99.9 -999.9 -9.9 -9.999 -99.9 -99.99 -9.99
2019/12/12 20:06 PST  -99.99 -99.99    4   37    4 -99.9 -99.9 -999.9 -9.9 -9.999 -99.9 -99.99 -9.99
2019/12/12 20:12 PST  -99.99 -99.99    3   31    4 -99.9 -99.9 -999.9 -9.9 -9.999 -99.9 -99.99 -9.99
2019/12/12 20:18 PST  -99.99 -99.99    4   31    4 -99.9 -99.9 -999.9 -9.9 -9.999 -99.9 -99.99 -9.99
2019/12/12 20:24 PST  -99.99 -99.99    5   31    5 -99.9 -99.9 -999.9 -9.9 -9.999 -99.9 -99.99 -9.99
2019/12/12 20:30 PST  -99.99 -99.99    5   45    6 -99.9 -99.9 -999.9 -9.9 -9.999 -99.9 -99.99 -9.99
2019/12/12 20:36 PST  -99.99 -99.99    4   52    5 -99.9 -99.9 -999.9 -9.9 -9.999 -99.9 -99.99 -9.99
2019/12/12 20:42 PST  -99.99 -99.99    4   32    4 -99.9 -99.9 -999.9 -9.9 -9.999 -99.9 -99.99 -9.99
2019/12/12 20:48 PST  -99.99 -99.99    3   31    4 -99.9 -99.9 -999.9 -9.9 -9.999 -99.9 -99.99 -9.99
2019/12/12 20:54 PST  -99.99 -99.99    4   51    5 -99.9 -99.9 -999.9 -9.9 -9.999 -99.9 -99.99 -9.99
2019/12/12 21:00 PST  -99.99 -99.99    4   28    4 -99.9 -99.9 -999.9 -9.9 -9.999 -99.9 -99.99 -9.99
2019/12/12 21:06 PST  -99.99 -99.99    4   39    4 -99.9 -99.9 -999.9 -9.9 -9.999 -99.9 -99.99 -9.99
2019/12/12 21:12 PST  -99.99 -99.99    3   41    4 -99.9 -99.9 -999.9 -9.9 -9.999 -99.9 -99.99 -9.99
2019/12/12 21:18 PST  -99.99 -99.99    3   49    3 -99.9 -99.9 -999.9 -9.9 -9.999 -99.9 -99.99 -9.99
2019/12/12 21:24 PST  -99.99 -99.99    3   57    3 -99.9 -99.9 -999.9 -9.9 -9.999 -99.9 -99.99 -9.99
2019/12/12 21:30 PST  -99.99 -99.99    4   46    4 -99.9 -99.9 -999.9 -9.9 -9.999 -99.9 -99.99 -9.99
2019/12/12 21:36 PST  -99.99 -99.99    4   48    4 -99.9 -99.9 -999.9 -9.9 -9.999 -99.9 -99.99 -9.99
2019/12/12 21:42 PST  -99.99 -99.99    3   49    3 -99.9 -99.9 -999.9 -9.9 -9.999 -99.9 -99.99 -9.99
2019/12/12 21:48 PST  -99.99 -99.99    4   60    4 -99.9 -99.9 -999.9 -9.9 -9.999 -99.9 -99.99 -9.99
2019/12/12 21:54 PST  -99.99 -99.99    4   51    5 -99.9 -99.9 -999.9 -9.9 -9.999 -99.9 -99.99 -9.99
2019/12/12 22:00 PST  -99.99 -99.99    5   59    5 -99.9 -99.9 -999.9 -9.9 -9.999 -99.9 -99.99 -9.99
2019/12/12 22:06 PST  -99.99 -99.99 -999 -999 -999 -99.9 -99.9 -999.9 -9.9 -9.999 -99.9 -99.99 -9.99
2019/12/12 22:12 PST  -99.99 -99.99    4   78    5 -99.9 -99.9 -999.9 -9.9 -9.999 -99.9 -99.99 -9.99
2019/12/12 22:18 PST  -99.99 -99.99    5   78    5 -99.9 -99.9 -999.9 -9.9 -9.999 -99.9 -99.99 -9.99
2019/12/12 22:24 PST  -99.99 -99.99    5   71    5 -99.9 -99.9 -999.9 -9.9 -9.999 -99.9 -99.99 -9.99
2019/12/12 22:30 PST  -99.99 -99.99    4   74    5 -99.9 -99.9 -999.9 -9.9 -9.999 -99.9 -99.99 -9.99
2019/12/12 22:36 PST  -99.99 -99.99    4   80    5 -99.9 -99.9 -999.9 -9.9 -9.999 -99.9 -99.99 -9.99
2019/12/12 22:42 PST  -99.99 -99.99    4   75    4 -99.9 -99.9 -999.9 -9.9 -9.999 -99.9 -99.99 -9.99
2019/12/12 22:48 PST  -99.99 -99.99    4   66    4 -99.9 -99.9 -999.9 -9.9 -9.999 -99.9 -99.99 -9.99
2019/12/12 22:54 PST  -99.99 -99.99    2   77    3 -99.9 -99.9 -999.9 -9.9 -9.999 -99.9 -99.99 -9.99
2019/12/12 23:00 PST  -99.99 -99.99    3   77    3 -99.9 -99.9 -999.9 -9.9 -9.999 -99.9 -99.99 -9.99
2019/12/12 23:06 PST  -99.99 -99.99    4   53    4 -99.9 -99.9 -999.9 -9.9 -9.999 -99.9 -99.99 -9.99
2019/12/12 23:12 PST  -99.99 -99.99    4   52    5 -99.9 -99.9 -999.9 -9.9 -9.999 -99.9 -99.99 -9.99
2019/12/12 23:18 PST  -99.99 -99.99    5   47    5 -99.9 -99.9 -999.9 -9.9 -9.999 -99.9 -99.99 -9.99
2019/12/12 23:24 PST  -99.99 -99.99    4   56    5 -99.9 -99.9 -999.9 -9.9 -9.999 -99.9 -99.99 -9.99
2019/12/12 23:30 PST  -99.99 -99.99    4   51    4 -99.9 -99.9 -999.9 -9.9 -9.999 -99.9 -99.99 -9.99
2019/12/12 23:36 PST  -99.99 -99.99    3   83    3 -99.9 -99.9 -999.9 -9.9 -9.999 -99.9 -99.99 -9.99
2019/12/12 23:42 PST  -99.99 -99.99    3   69    3 -99.9 -99.9 -999.9 -9.9 -9.999 -99.9 -99.99 -9.99
2019/12/12 23:48 PST  -99.99 -99.99    2   85    3 -99.9 -99.9 -999.9 -9.9 -9.999 -99.9 -99.99 -9.99
2019/12/12 23:54 PST  -99.99 -99.99    4   76    4 -99.9 -99.9 -999.9 -9.9 -9.999 -99.9 -99.99 -9.99
2019/12/13 00:00 PST  -99.99 -99.99    4   84    4 -99.9 -99.9 -999.9 -9.9 -9.999 -99.9 -99.99 -9.99
2019/12/13 00:06 PST  -99.99 -99.99    5   67    5 -99.9 -99.9 -999.9 -9.9 -9.999 -99.9 -99.99 -9.99
2019/12/13 00:12 PST  -99.99 -99.99    4   71    5 -99.9 -99.9 -999.9 -9.9 -9.999 -99.9 -99.99 -9.99
2019/12/13 00:18 PST  -99.99 -99.99 -999 -999 -999 -99.9 -99.9 -999.9 -9.9 -9.999 -99.9 -99.99 -9.99
2019/12/13 00:24 PST  -99.99 -99.99    4   97    4 -99.9 -99.9 -999.9 -9.9 -9.999 -99.9 -99.99 -9.99
2019/12/13 00:30 PST  -99.99 -99.99    4  104    5 -99.9 -99.9 -999.9 -9.9 -9.999 -99.9 -99.99 -9.99
2019/12/13 00:36 PST  -99.99 -99.99 -999 -999 -999 -99.9 -99.9 -999.9 -9.9 -9.999 -99.9 -99.99 -9.99
2019/12/13 00:42 PST  -99.99 -99.99    3   87    4 -99.9 -99.9 -999.9 -9.9 -9.999 -99.9 -99.99 -9.99
2019/12/13 00:48 PST  -99.99 -99.99 -999 -999 -999 -99.9 -99.9 -999.9 -9.9 -9.999 -99.9 -99.99 -9.99
2019/12/13 00:54 PST  -99.99 -99.99    2   83    2 -99.9 -99.9 -999.9 -9.9 -9.999 -99.9 -99.99 -9.99
2019/12/13 01:00 PST  -99.99 -99.99    2  111    2 -99.9 -99.9 -999.9 -9.9 -9.999 -99.9 -99.99 -9.99
2019/12/13 01:06 PST  -99.99 -99.99    2  112    2 -99.9 -99.9 -999.9 -9.9 -9.999 -99.9 -99.99 -9.99
2019/12/13 01:12 PST  -99.99 -99.99    1  128    1 -99.9 -99.9 -999.9 -9.9 -9.999 -99.9 -99.99 -9.99
2019/12/13 01:18 PST  -99.99 -99.99    0  104    1 -99.9 -99.9 -999.9 -9.9 -9.999 -99.9 -99.99 -9.99
2019/12/13 01:24 PST  -99.99 -99.99    1   41    1 -99.9 -99.9 -999.9 -9.9 -9.999 -99.9 -99.99 -9.99
2019/12/13 01:30 PST  -99.99 -99.99    1   33    1 -99.9 -99.9 -999.9 -9.9 -9.999 -99.9 -99.99 -9.99
2019/12/13 01:36 PST  -99.99 -99.99    0  307    1 -99.9 -99.9 -999.9 -9.9 -9.999 -99.9 -99.99 -9.99
2019/12/13 01:42 PST  -99.99 -99.99    1  307    1 -99.9 -99.9 -999.9 -9.9 -9.999 -99.9 -99.99 -9.99
2019/12/13 01:48 PST  -99.99 -99.99    1  298    1 -99.9 -99.9 -999.9 -9.9 -9.999 -99.9 -99.99 -9.99
2019/12/13 01:54 PST  -99.99 -99.99    1  299    1 -99.9 -99.9 -999.9 -9.9 -9.999 -99.9 -99.99 -9.99
2019/12/13 02:00 PST  -99.99 -99.99 -999 -999 -999 -99.9 -99.9 -999.9 -9.9 -9.999 -99.9 -99.99 -9.99
2019/12/13 02:06 PST  -99.99 -99.99    2  324    2 -99.9 -99.9 -999.9 -9.9 -9.999 -99.9 -99.99 -9.99
2019/12/13 02:12 PST  -99.99 -99.99 -999 -999 -999 -99.9 -99.9 -999.9 -9.9 -9.999 -99.9 -99.99 -9.99
2019/12/13 02:18 PST  -99.99 -99.99    4   10    4 -99.9 -99.9 -999.9 -9.9 -9.999 -99.9 -99.99 -9.99
2019/12/13 02:24 PST  -99.99 -99.99    3    3    3 -99.9 -99.9 -999.9 -9.9 -9.999 -99.9 -99.99 -9.99
2019/12/13 02:30 PST  -99.99 -99.99    3  357    4 -99.9 -99.9 -999.9 -9.9 -9.999 -99.9 -99.99 -9.99
2019/12/13 02:36 PST  -99.99 -99.99    3    3    4 -99.9 -99.9 -999.9 -9.9 -9.999 -99.9 -99.99 -9.99
2019/12/13 02:42 PST  -99.99 -99.99    2    7    3 -99.9 -99.9 -999.9 -9.9 -9.999 -99.9 -99.99 -9.99
2019/12/13 02:48 PST  -99.99 -99.99    3   31    3 -99.9 -99.9 -999.9 -9.9 -9.999 -99.9 -99.99 -9.99
2019/12/13 02:54 PST  -99.99 -99.99    1   41    3 -99.9 -99.9 -999.9 -9.9 -9.999 -99.9 -99.99 -9.99
2019/12/13 03:00 PST  -99.99 -99.99    1  110    1 -99.9 -99.9 -999.9 -9.9 -9.999 -99.9 -99.99 -9.99
2019/12/13 03:06 PST  -99.99 -99.99    0    0    0 -99.9 -99.9 -999.9 -9.9 -9.999 -99.9 -99.99 -9.99
2019/12/13 03:12 PST  -99.99 -99.99    1  355    2 -99.9 -99.9 -999.9 -9.9 -9.999 -99.9 -99.99 -9.99
2019/12/13 03:18 PST  -99.99 -99.99    1   19    2 -99.9 -99.9 -999.9 -9.9 -9.999 -99.9 -99.99 -9.99
2019/12/13 03:24 PST  -99.99 -99.99 -999 -999 -999 -99.9 -99.9 -999.9 -9.9 -9.999 -99.9 -99.99 -9.99
2019/12/13 03:30 PST  -99.99 -99.99    1   59    2 -99.9 -99.9 -999.9 -9.9 -9.999 -99.9 -99.99 -9.99
2019/12/13 03:36 PST  -99.99 -99.99    2  107    2 -99.9 -99.9 -999.9 -9.9 -9.999 -99.9 -99.99 -9.99
2019/12/13 03:42 PST  -99.99 -99.99    2   50    2 -99.9 -99.9 -999.9 -9.9 -9.999 -99.9 -99.99 -9.99
2019/12/13 03:48 PST  -99.99 -99.99    3   25    4 -99.9 -99.9 -999.9 -9.9 -9.999 -99.9 -99.99 -9.99
2019/12/13 03:54 PST  -99.99 -99.99    4   30    5 -99.9 -99.9 -999.9 -9.9 -9.999 -99.9 -99.99 -9.99
2019/12/13 04:00 PST  -99.99 -99.99    4   37    4 -99.9 -99.9 -999.9 -9.9 -9.999 -99.9 -99.99 -9.99
2019/12/13 04:06 PST  -99.99 -99.99    2   20    2 -99.9 -99.9 -999.9 -9.9 -9.999 -99.9 -99.99 -9.99
2019/12/13 04:12 PST  -99.99 -99.99    3   47    3 -99.9 -99.9 -999.9 -9.9 -9.999 -99.9 -99.99 -9.99
2019/12/13 04:18 PST  -99.99 -99.99    2   39    2 -99.9 -99.9 -999.9 -9.9 -9.999 -99.9 -99.99 -9.99
2019/12/13 04:24 PST  -99.99 -99.99    3   63    4 -99.9 -99.9 -999.9 -9.9 -9.999 -99.9 -99.99 -9.99
2019/12/13 04:30 PST  -99.99 -99.99    4   74    4 -99.9 -99.9 -999.9 -9.9 -9.999 -99.9 -99.99 -9.99
2019/12/13 04:36 PST  -99.99 -99.99    2  117    2 -99.9 -99.9 -999.9 -9.9 -9.999 -99.9 -99.99 -9.99
2019/12/13 04:42 PST  -99.99 -99.99    3   78    4 -99.9 -99.9 -999.9 -9.9 -9.999 -99.9 -99.99 -9.99
2019/12/13 04:48 PST  -99.99 -99.99    3  102    3 -99.9 -99.9 -999.9 -9.9 -9.999 -99.9 -99.99 -9.99
2019/12/13 04:54 PST  -99.99 -99.99    3   91    4 -99.9 -99.9 -999.9 -9.9 -9.999 -99.9 -99.99 -9.99
2019/12/13 05:00 PST  -99.99 -99.99 -999 -999 -999 -99.9 -99.9 -999.9 -9.9 -9.999 -99.9 -99.99 -9.99
2019/12/13 05:06 PST  -99.99 -99.99    4   87    5 -99.9 -99.9 -999.9 -9.9 -9.999 -99.9 -99.99 -9.99
2019/12/13 05:12 PST  -99.99 -99.99    2   66    3 -99.9 -99.9 -999.9 -9.9 -9.999 -99.9 -99.99 -9.99
2019/12/13 05:18 PST  -99.99 -99.99    3   86    4 -99.9 -99.9 -999.9 -9.9 -9.999 -99.9 -99.99 -9.99
2019/12/13 05:24 PST  -99.99 -99.99    2   83    3 -99.9 -99.9 -999.9 -9.9 -9.999 -99.9 -99.99 -9.99
2019/12/13 05:30 PST  -99.99 -99.99    3   64    4 -99.9 -99.9 -999.9 -9.9 -9.999 -99.9 -99.99 -9.99
2019/12/13 05:36 PST  -99.99 -99.99    2   60    3 -99.9 -99.9 -999.9 -9.9 -9.999 -99.9 -99.99 -9.99
2019/12/13 05:42 PST  -99.99 -99.99 -999 -999 -999 -99.9 -99.9 -999.9 -9.9 -9.999 -99.9 -99.99 -9.99
2019/12/13 05:48 PST  -99.99 -99.99    5  112    5 -99.9 -99.9 -999.9 -9.9 -9.999 -99.9 -99.99 -9.99
2019/12/13 05:54 PST  -99.99 -99.99    4  118    4 -99.9 -99.9 -999.9 -9.9 -9.999 -99.9 -99.99 -9.99
2019/12/13 06:00 PST  -99.99 -99.99    4   53    5 -99.9 -99.9 -999.9 -9.9 -9.999 -99.9 -99.99 -9.99
2019/12/13 06:06 PST  -99.99 -99.99    6   60    7 -99.9 -99.9 -999.9 -9.9 -9.999 -99.9 -99.99 -9.99
2019/12/13 06:12 PST  -99.99 -99.99    5   40    5 -99.9 -99.9 -999.9 -9.9 -9.999 -99.9 -99.99 -9.99
2019/12/13 06:18 PST  -99.99 -99.99    4   97    5 -99.9 -99.9 -999.9 -9.9 -9.999 -99.9 -99.99 -9.99
2019/12/13 06:24 PST  -99.99 -99.99 -999 -999 -999 -99.9 -99.9 -999.9 -9.9 -9.999 -99.9 -99.99 -9.99
2019/12/13 06:30 PST  -99.99 -99.99    3   72    3 -99.9 -99.9 -999.9 -9.9 -9.999 -99.9 -99.99 -9.99
2019/12/13 06:36 PST  -99.99 -99.99    4   56    5 -99.9 -99.9 -999.9 -9.9 -9.999 -99.9 -99.99 -9.99
2019/12/13 06:42 PST  -99.99 -99.99 -999 -999 -999 -99.9 -99.9 -999.9 -9.9 -9.999 -99.9 -99.99 -9.99
2019/12/13 06:48 PST  -99.99 -99.99    2   52    3 -99.9 -99.9 -999.9 -9.9 -9.999 -99.9 -99.99 -9.99
2019/12/13 06:54 PST  -99.99 -99.99    1   36    2 -99.9 -99.9 -999.9 -9.9 -9.999 -99.9 -99.99 -9.99
2019/12/13 07:00 PST  -99.99 -99.99    0   22    1 -99.9 -99.9 -999.9 -9.9 -9.999 -99.9 -99.99 -9.99
2019/12/13 07:06 PST  -99.99 -99.99    4   31    5 -99.9 -99.9 -999.9 -9.9 -9.999 -99.9 -99.99 -9.99
2019/12/13 07:12 PST  -99.99 -99.99    4   37    5 -99.9 -99.9 -999.9 -9.9 -9.999 -99.9 -99.99 -9.99
2019/12/13 07:18 PST  -99.99 -99.99    4   14    4 -99.9 -99.9 -999.9 -9.9 -9.999 -99.9 -99.99 -9.99
2019/12/13 07:24 PST  -99.99 -99.99    2   43    3 -99.9 -99.9 -999.9 -9.9 -9.999 -99.9 -99.99 -9.99
2019/12/13 07:30 PST  -99.99 -99.99    2   87    2 -99.9 -99.9 -999.9 -9.9 -9.999 -99.9 -99.99 -9.99
2019/12/13 07:36 PST  -99.99 -99.99    4  109    5 -99.9 -99.9 -999.9 -9.9 -9.999 -99.9 -99.99 -9.99
2019/12/13 07:42 PST  -99.99 -99.99    4  102    5 -99.9 -99.9 -999.9 -9.9 -9.999 -99.9 -99.99 -9.99
2019/12/13 07:48 PST  -99.99 -99.99    2  138    2 -99.9 -99.9 -999.9 -9.9 -9.999 -99.9 -99.99 -9.99
2019/12/13 07:54 PST  -99.99 -99.99    2   84    2 -99.9 -99.9 -999.9 -9.9 -9.999 -99.9 -99.99 -9.99
2019/12/13 08:00 PST  -99.99 -99.99    0  127    1 -99.9 -99.9 -999.9 -9.9 -9.999 -99.9 -99.99 -9.99
2019/12/13 08:06 PST  -99.99 -99.99    3  116    4 -99.9 -99.9 -999.9 -9.9 -9.999 -99.9 -99.99 -9.99
2019/12/13 08:12 PST  -99.99 -99.99    2  111    2 -99.9 -99.9 -999.9 -9.9 -9.999 -99.9 -99.99 -9.99
2019/12/13 08:18 PST  -99.99 -99.99    1  172    2 -99.9 -99.9 -999.9 -9.9 -9.999 -99.9 -99.99 -9.99
2019/12/13 08:24 PST  -99.99 -99.99    1   92    1 -99.9 -99.9 -999.9 -9.9 -9.999 -99.9 -99.99 -9.99
2019/12/13 08:30 PST  -99.99 -99.99    1  106    1 -99.9 -99.9 -999.9 -9.9 -9.999 -99.9 -99.99 -9.99
2019/12/13 08:36 PST  -99.99 -99.99    0  126    1 -99.9 -99.9 -999.9 -9.9 -9.999 -99.9 -99.99 -9.99
2019/12/13 08:42 PST  -99.99 -99.99    0  154    1 -99.9 -99.9 -999.9 -9.9 -9.999 -99.9 -99.99 -9.99
2019/12/13 08:48 PST  -99.99 -99.99    0  304    1 -99.9 -99.9 -999.9 -9.9 -9.999 -99.9 -99.99 -9.99
2019/12/13 08:54 PST  -99.99 -99.99    1    1    1 -99.9 -99.9 -999.9 -9.9 -9.999 -99.9 -99.99 -9.99
2019/12/13 09:00 PST  -99.99 -99.99    2  341    2 -99.9 -99.9 -999.9 -9.9 -9.999 -99.9 -99.99 -9.99
2019/12/13 09:06 PST  -99.99 -99.99    2   32    3 -99.9 -99.9 -999.9 -9.9 -9.999 -99.9 -99.99 -9.99
2019/12/13 09:12 PST  -99.99 -99.99    2   48    2 -99.9 -99.9 -999.9 -9.9 -9.999 -99.9 -99.99 -9.99
2019/12/13 09:18 PST  -99.99 -99.99    1    2    1 -99.9 -99.9 -999.9 -9.9 -9.999 -99.9 -99.99 -9.99
2019/12/13 09:24 PST  -99.99 -99.99    0    0    0 -99.9 -99.9 -999.9 -9.9 -9.999 -99.9 -99.99 -9.99
2019/12/13 09:30 PST  -99.99 -99.99    3   92    4 -99.9 -99.9 -999.9 -9.9 -9.999 -99.9 -99.99 -9.99
2019/12/13 09:36 PST  -99.99 -99.99    2  103    3 -99.9 -99.9 -999.9 -9.9 -9.999 -99.9 -99.99 -9.99
2019/12/13 09:42 PST  -99.99 -99.99    1  113    1 -99.9 -99.9 -999.9 -9.9 -9.999 -99.9 -99.99 -9.99
2019/12/13 09:48 PST  -99.99 -99.99    0  133    0 -99.9 -99.9 -999.9 -9.9 -9.999 -99.9 -99.99 -9.99
2019/12/13 09:54 PST  -99.99 -99.99    1   65    1 -99.9 -99.9 -999.9 -9.9 -9.999 -99.9 -99.99 -9.99
2019/12/13 10:00 PST  -99.99 -99.99    2   81    2 -99.9 -99.9 -999.9 -9.9 -9.999 -99.9 -99.99 -9.99
2019/12/13 10:06 PST  -99.99 -99.99    2   35    2 -99.9 -99.9 -999.9 -9.9 -9.999 -99.9 -99.99 -9.99
2019/12/13 10:12 PST  -99.99 -99.99    0    0    0 -99.9 -99.9 -999.9 -9.9 -9.999 -99.9 -99.99 -9.99
2019/12/13 10:18 PST  -99.99 -99.99    1  241    2 -99.9 -99.9 -999.9 -9.9 -9.999 -99.9 -99.99 -9.99
2019/12/13 10:24 PST  -99.99 -99.99    1  239    2 -99.9 -99.9 -999.9 -9.9 -9.999 -99.9 -99.99 -9.99
2019/12/13 10:30 PST  -99.99 -99.99    2  226    2 -99.9 -99.9 -999.9 -9.9 -9.999 -99.9 -99.99 -9.99
2019/12/13 10:36 PST  -99.99 -99.99    2  210    3 -99.9 -99.9 -999.9 -9.9 -9.999 -99.9 -99.99 -9.99
2019/12/13 10:42 PST  -99.99 -99.99    1  116    1 -99.9 -99.9 -999.9 -9.9 -9.999 -99.9 -99.99 -9.99
2019/12/13 10:48 PST  -99.99 -99.99    1   96    1 -99.9 -99.9 -999.9 -9.9 -9.999 -99.9 -99.99 -9.99
2019/12/13 10:54 PST  -99.99 -99.99    1  223    2 -99.9 -99.9 -999.9 -9.9 -9.999 -99.9 -99.99 -9.99
2019/12/13 11:00 PST  -99.99 -99.99    1  192    2 -99.9 -99.9 -999.9 -9.9 -9.999 -99.9 -99.99 -9.99
2019/12/13 11:06 PST  -99.99 -99.99    1  223    1 -99.9 -99.9 -999.9 -9.9 -9.999 -99.9 -99.99 -9.99
2019/12/13 11:12 PST  -99.99 -99.99    1  191    1 -99.9 -99.9 -999.9 -9.9 -9.999 -99.9 -99.99 -9.99
2019/12/13 11:18 PST  -99.99 -99.99    2  209    2 -99.9 -99.9 -999.9 -9.9 -9.999 -99.9 -99.99 -9.99
2019/12/13 11:24 PST  -99.99 -99.99    2  223    3 -99.9 -99.9 -999.9 -9.9 -9.999 -99.9 -99.99 -9.99
2019/12/13 11:30 PST  -99.99 -99.99    3  208    4 -99.9 -99.9 -999.9 -9.9 -9.999 -99.9 -99.99 -9.99
2019/12/13 11:36 PST  -99.99 -99.99    5  190    5 -99.9 -99.9 -999.9 -9.9 -9.999 -99.9 -99.99 -9.99
2019/12/13 11:42 PST  -99.99 -99.99    4  189    5 -99.9 -99.9 -999.9 -9.9 -9.999 -99.9 -99.99 -9.99
2019/12/13 11:48 PST  -99.99 -99.99    3  205    4 -99.9 -99.9 -999.9 -9.9 -9.999 -99.9 -99.99 -9.99
2019/12/13 11:54 PST  -99.99 -99.99    5  198    6 -99.9 -99.9 -999.9 -9.9 -9.999 -99.9 -99.99 -9.99
2019/12/13 12:00 PST  -99.99 -99.99    4  200    4 -99.9 -99.9 -999.9 -9.9 -9.999 -99.9 -99.99 -9.99
2019/12/13 12:06 PST  -99.99 -99.99    5  201    7 -99.9 -99.9 -999.9 -9.9 -9.999 -99.9 -99.99 -9.99
2019/12/13 12:12 PST  -99.99 -99.99    5  218    6 -99.9 -99.9 -999.9 -9.9 -9.999 -99.9 -99.99 -9.99
2019/12/13 12:18 PST  -99.99 -99.99    6  217    8 -99.9 -99.9 -999.9 -9.9 -9.999 -99.9 -99.99 -9.99
2019/12/13 12:24 PST  -99.99 -99.99    6  221    7 -99.9 -99.9 -999.9 -9.9 -9.999 -99.9 -99.99 -9.99
2019/12/13 12:30 PST  -99.99 -99.99    8  224    9 -99.9 -99.9 -999.9 -9.9 -9.999 -99.9 -99.99 -9.99
2019/12/13 12:36 PST  -99.99 -99.99    7  224    8 -99.9 -99.9 -999.9 -9.9 -9.999 -99.9 -99.99 -9.99
2019/12/13 12:42 PST  -99.99 -99.99    8  235   10 -99.9 -99.9 -999.9 -9.9 -9.999 -99.9 -99.99 -9.99
2019/12/13 12:48 PST  -99.99 -99.99    6  233    9 -99.9 -99.9 -999.9 -9.9 -9.999 -99.9 -99.99 -9.99
2019/12/13 12:54 PST  -99.99 -99.99    8  226    9 -99.9 -99.9 -999.9 -9.9 -9.999 -99.9 -99.99 -9.99
2019/12/13 13:00 PST  -99.99 -99.99    9  214   10 -99.9 -99.9 -999.9 -9.9 -9.999 -99.9 -99.99 -9.99
2019/12/13 13:06 PST  -99.99 -99.99   10  214   11 -99.9 -99.9 -999.9 -9.9 -9.999 -99.9 -99.99 -9.99
2019/12/13 13:12 PST  -99.99 -99.99   11  220   12 -99.9 -99.9 -999.9 -9.9 -9.999 -99.9 -99.99 -9.99
2019/12/13 13:18 PST  -99.99 -99.99    9  230   11 -99.9 -99.9 -999.9 -9.9 -9.999 -99.9 -99.99 -9.99
2019/12/13 13:24 PST  -99.99 -99.99   10  232   12 -99.9 -99.9 -999.9 -9.9 -9.999 -99.9 -99.99 -9.99
2019/12/13 13:30 PST  -99.99 -99.99   11  229   14 -99.9 -99.9 -999.9 -9.9 -9.999 -99.9 -99.99 -9.99
2019/12/13 13:36 PST  -99.99 -99.99   11  231   14 -99.9 -99.9 -999.9 -9.9 -9.999 -99.9 -99.99 -9.99
2019/12/13 13:42 PST  -99.99 -99.99   11  231   13 -99.9 -99.9 -999.9 -9.9 -9.999 -99.9 -99.99 -9.99
2019/12/13 13:48 PST  -99.99 -99.99   11  235   13 -99.9 -99.9 -999.9 -9.9 -9.999 -99.9 -99.99 -9.99
2019/12/13 13:54 PST  -99.99 -99.99    9  234   11 -99.9 -99.9 -999.9 -9.9 -9.999 -99.9 -99.99 -9.99
2019/12/13 14:00 PST  -99.99 -99.99   11  223   15 -99.9 -99.9 -999.9 -9.9 -9.999 -99.9 -99.99 -9.99
2019/12/13 14:06 PST  -99.99 -99.99   10  232   13 -99.9 -99.9 -999.9 -9.9 -9.999 -99.9 -99.99 -9.99
2019/12/13 14:12 PST  -99.99 -99.99   10  226   12 -99.9 -99.9 -999.9 -9.9 -9.999 -99.9 -99.99 -9.99
2019/12/13 14:18 PST  -99.99 -99.99   11  233   13 -99.9 -99.9 -999.9 -9.9 -9.999 -99.9 -99.99 -9.99
2019/12/13 14:24 PST  -99.99 -99.99   10  243   11 -99.9 -99.9 -999.9 -9.9 -9.999 -99.9 -99.99 -9.99
2019/12/13 14:30 PST  -99.99 -99.99   11  244   13 -99.9 -99.9 -999.9 -9.9 -9.999 -99.9 -99.99 -9.99
2019/12/13 14:36 PST  -99.99 -99.99   12  246   13 -99.9 -99.9 -999.9 -9.9 -9.999 -99.9 -99.99 -9.99
2019/12/13 14:42 PST  -99.99 -99.99   12  245   14 -99.9 -99.9 -999.9 -9.9 -9.999 -99.9 -99.99 -9.99
2019/12/13 14:48 PST  -99.99 -99.99   11  241   13 -99.9 -99.9 -999.9 -9.9 -9.999 -99.9 -99.99 -9.99
2019/12/13 14:54 PST  -99.99 -99.99   13  242   15 -99.9 -99.9 -999.9 -9.9 -9.999 -99.9 -99.99 -9.99
2019/12/13 15:00 PST  -99.99 -99.99   12  244   14 -99.9 -99.9 -999.9 -9.9 -9.999 -99.9 -99.99 -9.99
2019/12/13 15:06 PST  -99.99 -99.99   14  250   17 -99.9 -99.9 -999.9 -9.9 -9.999 -99.9 -99.99 -9.99
2019/12/13 15:12 PST  -99.99 -99.99   14  248   16 -99.9 -99.9 -999.9 -9.9 -9.999 -99.9 -99.99 -9.99
2019/12/13 15:18 PST  -99.99 -99.99   11  248   13 -99.9 -99.9 -999.9 -9.9 -9.999 -99.9 -99.99 -9.99
2019/12/13 15:24 PST  -99.99 -99.99   12  247   13 -99.9 -99.9 -999.9 -9.9 -9.999 -99.9 -99.99 -9.99
2019/12/13 15:30 PST  -99.99 -99.99   11  249   12 -99.9 -99.9 -999.9 -9.9 -9.999 -99.9 -99.99 -9.99
2019/12/13 15:36 PST  -99.99 -99.99   12  248   13 -99.9 -99.9 -999.9 -9.9 -9.999 -99.9 -99.99 -9.99
2019/12/13 15:42 PST  -99.99 -99.99   12  252   14 -99.9 -99.9 -999.9 -9.9 -9.999 -99.9 -99.99 -9.99
2019/12/13 15:48 PST  -99.99 -99.99   12  254   14 -99.9 -99.9 -999.9 -9.9 -9.999 -99.9 -99.99 -9.99
2019/12/13 15:54 PST  -99.99 -99.99   12  244   14 -99.9 -99.9 -999.9 -9.9 -9.999 -99.9 -99.99 -9.99
2019/12/13 16:00 PST  -99.99 -99.99    9  249   11 -99.9 -99.9 -999.9 -9.9 -9.999 -99.9 -99.99 -9.99
2019/12/13 16:06 PST  -99.99 -99.99   10  245   12 -99.9 -99.9 -999.9 -9.9 -9.999 -99.9 -99.99 -9.99
2019/12/13 16:12 PST  -99.99 -99.99   11  242   13 -99.9 -99.9 -999.9 -9.9 -9.999 -99.9 -99.99 -9.99
2019/12/13 16:18 PST  -99.99 -99.99   10  239   12 -99.9 -99.9 -999.9 -9.9 -9.999 -99.9 -99.99 -9.99
2019/12/13 16:24 PST  -99.99 -99.99    9  244   11 -99.9 -99.9 -999.9 -9.9 -9.999 -99.9 -99.99 -9.99
2019/12/13 16:30 PST  -99.99 -99.99   10  236   12 -99.9 -99.9 -999.9 -9.9 -9.999 -99.9 -99.99 -9.99
2019/12/13 16:36 PST  -99.99 -99.99    9  238   11 -99.9 -99.9 -999.9 -9.9 -9.999 -99.9 -99.99 -9.99
2019/12/13 16:42 PST  -99.99 -99.99    9  242   10 -99.9 -99.9 -999.9 -9.9 -9.999 -99.9 -99.99 -9.99
2019/12/13 16:48 PST  -99.99 -99.99    7  250    9 -99.9 -99.9 -999.9 -9.9 -9.999 -99.9 -99.99 -9.99
2019/12/13 16:54 PST  -99.99 -99.99    6  252    7 -99.9 -99.9 -999.9 -9.9 -9.999 -99.9 -99.99 -9.99
2019/12/13 17:00 PST  -99.99 -99.99    5  259    7 -99.9 -99.9 -999.9 -9.9 -9.999 -99.9 -99.99 -9.99
2019/12/13 17:06 PST  -99.99 -99.99    5  260    6 -99.9 -99.9 -999.9 -9.9 -9.999 -99.9 -99.99 -9.99
2019/12/13 17:12 PST  -99.99 -99.99    4  264    5 -99.9 -99.9 -999.9 -9.9 -9.999 -99.9 -99.99 -9.99
2019/12/13 17:18 PST  -99.99 -99.99    6  250    6 -99.9 -99.9 -999.9 -9.9 -9.999 -99.9 -99.99 -9.99
2019/12/13 17:24 PST  -99.99 -99.99    5  256    5 -99.9 -99.9 -999.9 -9.9 -9.999 -99.9 -99.99 -9.99
2019/12/13 17:30 PST  -99.99 -99.99    5  262    6 -99.9 -99.9 -999.9 -9.9 -9.999 -99.9 -99.99 -9.99
2019/12/13 17:36 PST  -99.99 -99.99    7  253    8 -99.9 -99.9 -999.9 -9.9 -9.999 -99.9 -99.99 -9.99
2019/12/13 17:42 PST  -99.99 -99.99    5  254    6 -99.9 -99.9 -999.9 -9.9 -9.999 -99.9 -99.99 -9.99
2019/12/13 17:48 PST  -99.99 -99.99    3  256    4 -99.9 -99.9 -999.9 -9.9 -9.999 -99.9 -99.99 -9.99
2019/12/13 17:54 PST  -99.99 -99.99    4  236    5 -99.9 -99.9 -999.9 -9.9 -9.999 -99.9 -99.99 -9.99
2019/12/13 18:00 PST  -99.99 -99.99    4  246    5 -99.9 -99.9 -999.9 -9.9 -9.999 -99.9 -99.99 -9.99
2019/12/13 18:06 PST  -99.99 -99.99    4  244    5 -99.9 -99.9 -999.9 -9.9 -9.999 -99.9 -99.99 -9.99
2019/12/13 18:12 PST  -99.99 -99.99    6  245    7 -99.9 -99.9 -999.9 -9.9 -9.999 -99.9 -99.99 -9.99
2019/12/13 18:18 PST  -99.99 -99.99    5  243    6 -99.9 -99.9 -999.9 -9.9 -9.999 -99.9 -99.99 -9.99
2019/12/13 18:24 PST  -99.99 -99.99    6  248    6 -99.9 -99.9 -999.9 -9.9 -9.999 -99.9 -99.99 -9.99
2019/12/13 18:30 PST  -99.99 -99.99    4  226    5 -99.9 -99.9 -999.9 -9.9 -9.999 -99.9 -99.99 -9.99
2019/12/13 18:36 PST  -99.99 -99.99    4  228    5 -99.9 -99.9 -999.9 -9.9 -9.999 -99.9 -99.99 -9.99
2019/12/13 18:42 PST  -99.99 -99.99    4  234    5 -99.9 -99.9 -999.9 -9.9 -9.999 -99.9 -99.99 -9.99
2019/12/13 18:48 PST  -99.99 -99.99    3  268    4 -99.9 -99.9 -999.9 -9.9 -9.999 -99.9 -99.99 -9.99
2019/12/13 18:54 PST  -99.99 -99.99    3  267    4 -99.9 -99.9 -999.9 -9.9 -9.999 -99.9 -99.99 -9.99
2019/12/13 19:00 PST  -99.99 -99.99 -999 -999 -999 -99.9 -99.9 -999.9 -9.9 -9.999 -99.9 -99.99 -9.99